Zarling — WDD7883 — position and weather

sailwx.info

Track history (hours):
 
Tides and Currents Weather Stations Pressure Air Temp Water Temp Dewpoint Dewpoint Depression Visibility Wind Speed Wind Dir Waves Ship Positions

Zarling

Owner: Clean Rivers Co-op, Portland, OR. More information available from US FCC via Universal Licensing System.

Last reported at 2015-Jun-27 05:22 UTC. Time now 2015-Jul-01 19:12 UTC.
Position N 46°05' W 122°56'.

Length 12 m.

Type: Pollution control. MMSI: 3699126.

Date/timePositionNaut miles runAvg speedWind from/ knotsBaromVisibWave heightAir tempDewpointWater temp
2015-Jun-27 05:22N 46°05' W 122°56'2915.6
2015-Jun-27 03:32N 45°37' W 122°48'29235.6
2015-Jun-27 03:24N 46°05' W 122°56'2010.2
2015-Jun-27 01:24N 46°12' W 123°23'3237.5
2015-Jun-27 00:33N 45°52' W 122°48'15192.7
2015-Jun-27 00:29N 45°37' W 122°48'29167.3
2015-Jun-27 00:18N 46°05' W 122°56'1419.2
2015-Jun-26 23:33N 45°52' W 122°48'32681.9
2015-Jun-26 23:30N 46°12' W 123°23'2014657.1
2015-Jun-26 23:30N 46°05' W 122°56'29364.7
2015-Jun-26 23:26N 45°37' W 122°48'0 0.0
2015-Jun-26 22:32N 45°37' W 122°48'15202.2
2015-Jun-26 22:27N 45°52' W 122°48'14295.8
2015-Jun-26 22:24N 46°05' W 122°56'1415.2
2015-Jun-26 21:27N 45°52' W 122°48'14292.5
2015-Jun-26 21:24N 46°05' W 122°56'291042.4
2015-Jun-26 21:23N 45°37' W 122°48'2934.8
2015-Jun-26 20:33N 46°05' W 122°56'291032.0
2015-Jun-26 20:32N 45°37' W 122°48'432030.7
2015-Jun-26 20:30N 46°12' W 123°23'3212805.1
2015-Jun-26 20:30N 45°52' W 122°48'3233.8
2015-Jun-26 19:33N 46°12' W 123°23'3211526.0
2015-Jun-26 19:33N 45°52' W 122°48'15567.9
2015-Jun-26 19:32N 45°37' W 122°48'2976.9
2015-Jun-26 19:09N 46°05' W 122°56'0 0.0
2015-Jun-26 18:30N 46°05' W 122°56'14282.8
2015-Jun-26 18:27N 45°52' W 122°48'15550.4
2015-Jun-26 18:26N 45°37' W 122°48'1515.2
2015-Jun-26 17:27N 45°52' W 122°48'15561.7
2015-Jun-26 17:26N 45°37' W 122°48'431978.6
2015-Jun-26 17:24N 46°12' W 123°23'20201.3
2015-Jun-26 17:18N 46°05' W 122°56'2022.7
2015-Jun-26 16:24N 46°12' W 123°23'3214407.5
2015-Jun-26 16:24N 45°52' W 122°48'15550.4
2015-Jun-26 16:23N 45°37' W 122°48'291290.2
2015-Jun-26 16:21N 46°05' W 122°56'1418.1
2015-Jun-26 15:33N 45°52' W 122°48'32314.1
2015-Jun-26 15:27N 46°12' W 123°23'431754.2
2015-Jun-26 15:26N 45°37' W 122°48'29388.0
2015-Jun-26 15:21N 46°05' W 122°56'1418.1
2015-Jun-26 14:33N 45°52' W 122°48'15556.1
2015-Jun-26 14:32N 45°37' W 122°48'29128.9
2015-Jun-26 14:18N 46°05' W 122°56'20132.3
2015-Jun-26 14:09N 46°12' W 123°23'2034.1
2015-Jun-26 13:33N 46°05' W 122°56'2012214.3
2015-Jun-26 13:33N 46°12' W 123°23'431734.3
2015-Jun-26 13:32N 45°37' W 122°48'1566.4
2015-Jun-26 13:18N 45°52' W 122°48'1519.1
2015-Jun-26 12:32N 45°37' W 122°48'291228.6
2015-Jun-26 12:30N 46°05' W 122°56'20389.8
2015-Jun-26 12:27N 46°12' W 123°23'32677.9
2015-Jun-26 12:24N 45°52' W 122°48'1516.0
2015-Jun-26 11:29N 45°37' W 122°48'291214.1
2015-Jun-26 11:27N 46°05' W 122°56'207328.6
2015-Jun-26 11:27N 46°12' W 123°23'32681.9
2015-Jun-26 11:24N 45°52' W 122°48'0 0.0
2015-Jun-26 10:33N 45°52' W 122°48'15567.9
2015-Jun-26 10:32N 45°37' W 122°48'291200.2
2015-Jun-26 10:30N 46°05' W 122°56'2080.6
2015-Jun-26 10:15N 46°12' W 123°23'3246.0
2015-Jun-26 09:33N 45°52' W 122°48'14286.1
2015-Jun-26 09:30N 46°05' W 122°56'29376.7
2015-Jun-26 09:26N 45°37' W 122°48'43555.2
2015-Jun-26 09:21N 46°12' W 123°23'4352.1
2015-Jun-26 08:32N 45°37' W 122°48'15650.8
2015-Jun-26 08:30N 45°52' W 122°48'1417354.7
2015-Jun-26 08:30N 46°05' W 122°56'2928.0
2015-Jun-26 07:29N 45°37' W 122°48'1554.2
2015-Jun-26 07:12N 45°52' W 122°48'148674.0
2015-Jun-26 07:12N 46°05' W 122°56'1422.3
2015-Jun-26 06:33N 45°52' W 122°48'14279.8
2015-Jun-26 06:30N 46°05' W 122°56'291146.6
2015-Jun-26 06:29N 45°37' W 122°48'43131.0
2015-Jun-26 06:09N 46°12' W 123°23'2031.4
2015-Jun-26 05:30N 46°05' W 122°56'29380.8
2015-Jun-26 05:26N 45°37' W 122°48'15201.5
2015-Jun-26 05:21N 45°52' W 122°48'19160.1
2015-Jun-26 05:14N 45°33' W 122°42'6 7.8
2015-Jun-26 04:29N 45°37' W 122°48'291086.3
2015-Jun-26 04:27N 46°05' W 122°56'14299.1
2015-Jun-26 04:24N 45°52' W 122°48'0 0.0
2015-Jun-26 03:33N 45°52' W 122°48'14278.4
2015-Jun-26 03:30N 46°05' W 122°56'291146.6
2015-Jun-26 03:29N 45°37' W 122°48'1516.1
2015-Jun-26 02:33N 45°52' W 122°48'15545.0
2015-Jun-26 02:32N 45°37' W 122°48'291146.9
2015-Jun-26 02:30N 46°05' W 122°56'1415.3
2015-Jun-26 01:33N 45°52' W 122°48'15533.7
2015-Jun-26 01:32N 45°37' W 122°48'291214.1
2015-Jun-26 01:30N 46°05' W 122°56'1415.2
2015-Jun-26 00:33N 45°52' W 122°48'1413016.0
2015-Jun-26 00:33N 46°05' W 122°56'29379.5
2015-Jun-26 00:29N 45°37' W 122°48'1516.1
2015-Jun-25 23:33N 45°52' W 122°48'15550.2
2015-Jun-25 23:32N 45°37' W 122°48'291086.3
2015-Jun-25 23:30N 46°05' W 122°56'2929.4
2015-Jun-25 22:32N 45°37' W 122°48'15628.3
2015-Jun-25 22:30N 45°52' W 122°48'14282.8
2015-Jun-25 22:27N 46°05' W 122°56'0 0.0
2015-Jun-25 21:30N 46°05' W 122°56'14309.8
2015-Jun-25 21:27N 45°52' W 122°48'15550.6
2015-Jun-25 21:26N 45°37' W 122°48'4348.8
2015-Jun-25 20:33N 46°12' W 123°23'32715.9
2015-Jun-25 20:30N 45°52' W 122°48'145206.4
2015-Jun-25 20:30N 46°05' W 122°56'29388.0
2015-Jun-25 20:26N 45°37' W 122°48'4348.8
2015-Jun-25 19:33N 46°12' W 123°23'20209.4
2015-Jun-25 19:27N 46°05' W 122°56'29385.1
2015-Jun-25 19:23N 45°37' W 122°48'15643.2
2015-Jun-25 19:21N 45°52' W 122°48'1517.9
2015-Jun-25 18:32N 45°37' W 122°48'291109.7
2015-Jun-25 18:30N 46°05' W 122°56'20563.7
2015-Jun-25 18:28N 46°12' W 123°23'32288.9
2015-Jun-25 18:21N 45°52' W 122°48'0 0.0
2015-Jun-25 17:33N 45°52' W 122°48'15550.2
2015-Jun-25 17:32N 45°37' W 122°48'29373.9
2015-Jun-25 17:27N 46°05' W 122°56'20236.4
2015-Jun-25 17:22N 46°12' W 123°23'4351.3
2015-Jun-25 16:32N 45°37' W 122°48'291063.9
2015-Jun-25 16:30N 46°05' W 122°56'20234.9
2015-Jun-25 16:25N 46°12' W 123°23'32528.7
2015-Jun-25 16:21N 45°52' W 122°48'1518.0
2015-Jun-25 15:32N 45°37' W 122°48'15200.7
2015-Jun-25 15:27N 45°52' W 122°48'14140.0
2015-Jun-25 15:21N 46°05' W 122°56'20109.4
2015-Jun-25 15:10N 46°12' W 123°23'4367.3
2015-Jun-25 14:32N 45°37' W 122°48'15628.1
2015-Jun-25 14:30N 45°52' W 122°48'32800.5
2015-Jun-25 14:28N 46°12' W 123°23'20320.1
2015-Jun-25 14:24N 46°05' W 122°56'2931.1
2015-Jun-25 13:29N 45°37' W 122°48'15586.7
2015-Jun-25 13:27N 45°52' W 122°48'14269.8
2015-Jun-25 13:24N 46°05' W 122°56'20572.5
2015-Jun-25 13:22N 46°12' W 123°23'2010.9
2015-Jun-25 11:30N 46°05' W 122°56'14317.5
2015-Jun-25 11:28N 45°52' W 122°48'32352.5
2015-Jun-25 11:22N 46°12' W 123°23'43499.5
2015-Jun-25 11:17N 45°37' W 122°48'2936.9
2015-Jun-25 10:30N 46°05' W 122°56'291243.6
2015-Jun-25 10:29N 45°37' W 122°48'433430.0
2015-Jun-25 10:28N 46°12' W 123°23'32292.5
2015-Jun-25 10:22N 45°52' W 122°48'1517.9
2015-Jun-25 09:32N 45°37' W 122°48'15651.1
2015-Jun-25 09:31N 45°52' W 122°48'143470.9
2015-Jun-25 09:30N 46°05' W 122°56'2046.7
2015-Jun-25 09:04N 46°12' W 123°23'4379.9
2015-Jun-25 08:32N 45°37' W 122°48'15628.1
2015-Jun-25 08:31N 45°52' W 122°48'32806.0
2015-Jun-25 08:28N 46°12' W 123°23'20313.2
2015-Jun-25 08:24N 46°05' W 122°56'1416.2
2015-Jun-25 07:31N 45°52' W 122°48'142739.2
2015-Jun-25 07:30N 46°05' W 122°56'29398.4
2015-Jun-25 07:26N 45°37' W 122°48'432967.9
2015-Jun-25 07:25N 46°12' W 123°23'2023.6
2015-Jun-25 06:33N 46°05' W 122°56'20568.1
2015-Jun-25 06:31N 46°12' W 123°23'32292.5
2015-Jun-25 06:25N 45°52' W 122°48'15118.9
2015-Jun-25 06:17N 45°37' W 122°48'0 0.0
2015-Jun-25 05:32N 45°37' W 122°48'433150.0
2015-Jun-25 05:31N 46°12' W 123°23'201495.6
2015-Jun-25 05:30N 46°05' W 122°56'14313.6
2015-Jun-25 05:28N 45°52' W 122°48'0 0.0
2015-Jun-25 04:22N 45°52' W 122°48'142891.3
2015-Jun-25 04:21N 46°05' W 122°56'291323.3
2015-Jun-25 04:20N 45°37' W 122°48'1518.0
2015-Jun-25 03:31N 45°52' W 122°48'14137.4
2015-Jun-25 03:24N 46°05' W 122°56'291290.0
2015-Jun-25 03:23N 45°37' W 122°48'6257.4
2015-Jun-25 03:22N 45°33' W 122°42'49167.1
2015-Jun-25 03:04N 46°12' W 123°23'4380.2
2015-Jun-25 02:32N 45°37' W 122°48'1584.9
2015-Jun-25 02:22N 45°52' W 122°48'14262.8
2015-Jun-25 02:18N 46°05' W 122°56'3442.3
2015-Jun-25 01:31N 45°33' W 122°42'6219.7
2015-Jun-25 01:29N 45°37' W 122°48'15120.5
2015-Jun-25 01:22N 45°52' W 122°48'14137.4
2015-Jun-25 01:15N 46°05' W 122°56'0 0.0
2015-Jun-25 00:30N 46°05' W 122°56'14325.4
2015-Jun-25 00:28N 45°52' W 122°48'15550.4
2015-Jun-25 00:26N 45°37' W 122°48'0 0.0
2015-Jun-24 23:32N 45°37' W 122°48'43662.4
2015-Jun-24 23:28N 46°12' W 123°23'32554.1
2015-Jun-24 23:25N 45°52' W 122°48'142168.5
2015-Jun-24 23:24N 46°05' W 122°56'1416.2
2015-Jun-24 22:31N 45°52' W 122°48'142082.6
2015-Jun-24 22:30N 46°05' W 122°56'20555.2
2015-Jun-24 22:28N 46°12' W 123°23'43320.2
2015-Jun-24 22:20N 45°37' W 122°48'0 0.0
2015-Jun-24 21:32N 45°37' W 122°48'15203.0
2015-Jun-24 21:28N 45°52' W 122°48'14256.5
2015-Jun-24 21:24N 46°05' W 122°56'20559.4
2015-Jun-24 21:22N 46°12' W 123°23'2023.6
2015-Jun-24 20:30N 46°05' W 122°56'14331.5
2015-Jun-24 20:28N 45°52' W 122°48'15556.1
2015-Jun-24 20:26N 45°37' W 122°48'43648.5
2015-Jun-24 20:22N 46°12' W 123°23'2023.6
2015-Jun-24 19:30N 46°05' W 122°56'14331.6
2015-Jun-24 19:28N 45°52' W 122°48'15117.1
2015-Jun-24 19:20N 45°37' W 122°48'43662.4
2015-Jun-24 19:16N 46°12' W 123°23'0 0.0
2015-Jun-24 18:31N 46°12' W 123°23'201495.6
2015-Jun-24 18:30N 46°05' W 122°56'291340.5
2015-Jun-24 18:29N 45°37' W 122°48'2930.9
2015-Jun-24 17:33N 46°05' W 122°56'14100.5
2015-Jun-24 17:25N 45°52' W 122°48'15544.5
2015-Jun-24 17:23N 45°37' W 122°48'43198.6
2015-Jun-24 17:10N 46°12' W 123°23'2030.7
2015-Jun-24 16:30N 46°05' W 122°56'14333.7
2015-Jun-24 16:28N 45°52' W 122°48'32753.3
2015-Jun-24 16:25N 46°12' W 123°23'43320.2
2015-Jun-24 16:17N 45°37' W 122°48'2939.2
2015-Jun-24 15:33N 46°05' W 122°56'291474.6
2015-Jun-24 15:32N 45°37' W 122°48'43645.8
2015-Jun-24 15:28N 46°12' W 123°23'32570.6
2015-Jun-24 15:25N 45°52' W 122°48'1516.9
2015-Jun-24 14:32N 45°37' W 122°48'15635.6
2015-Jun-24 14:31N 45°52' W 122°48'32743.6
2015-Jun-24 14:28N 46°12' W 123°23'20314.5
2015-Jun-24 14:24N 46°05' W 122°56'2933.0
2015-Jun-24 13:32N 45°37' W 122°48'15675.8
2015-Jun-24 13:31N 45°52' W 122°48'32220.4
2015-Jun-24 13:22N 46°12' W 123°23'20327.2
2015-Jun-24 13:18N 46°05' W 122°56'1418.2
2015-Jun-24 12:31N 45°52' W 122°48'14133.2
2015-Jun-24 12:24N 46°05' W 122°56'291517.9
2015-Jun-24 12:23N 45°37' W 122°48'43637.8
2015-Jun-24 12:19N 46°12' W 123°23'3239.8
2015-Jun-24 11:31N 45°52' W 122°48'141679.5
2015-Jun-24 11:30N 46°05' W 122°56'291474.6
2015-Jun-24 11:29N 45°37' W 122°48'43197.6
2015-Jun-24 11:16N 46°12' W 123°23'2028.5
2015-Jun-24 10:33N 46°05' W 122°56'291563.9
2015-Jun-24 10:32N 45°37' W 122°48'15202.2
2015-Jun-24 10:28N 45°52' W 122°48'32339.0
2015-Jun-24 10:22N 46°12' W 123°23'4351.5
2015-Jun-24 09:32N 45°37' W 122°48'29905.4
2015-Jun-24 09:30N 46°05' W 122°56'20563.7
2015-Jun-24 09:28N 46°12' W 123°23'32576.3
2015-Jun-24 09:25N 45°52' W 122°48'1416.9
2015-Jun-24 08:33N 46°05' W 122°56'291517.6
2015-Jun-24 08:32N 45°37' W 122°48'43632.5
2015-Jun-24 08:28N 46°12' W 123°23'32206.2
2015-Jun-24 08:19N 45°52' W 122°48'1419.1
2015-Jun-24 07:33N 46°05' W 122°56'291563.6
2015-Jun-24 07:32N 45°37' W 122°48'43255.5
2015-Jun-24 07:22N 46°12' W 123°23'326065.6
2015-Jun-24 07:22N 45°52' W 122°48'1516.0
2015-Jun-24 06:26N 45°37' W 122°48'29217.7
2015-Jun-24 06:18N 46°05' W 122°56'14349.4
2015-Jun-24 06:16N 45°52' W 122°48'1420.4
2015-Jun-24 05:33N 46°05' W 122°56'20551.0
2015-Jun-24 05:31N 46°12' W 123°23'327202.9
2015-Jun-24 05:31N 45°52' W 122°48'15116.3
2015-Jun-24 05:23N 45°37' W 122°48'0 0.0
2015-Jun-24 04:32N 45°37' W 122°48'29897.4
2015-Jun-24 04:30N 46°05' W 122°56'20559.4
2015-Jun-24 04:28N 46°12' W 123°23'2022.3
2015-Jun-24 03:33N 46°05' W 122°56'291612.5
2015-Jun-24 03:32N 45°37' W 122°48'15650.8
2015-Jun-24 03:31N 45°52' W 122°48'32335.1
2015-Jun-24 03:25N 46°12' W 123°23'49450.1
2015-Jun-24 03:19N 45°33' W 122°42'6 7.6
2015-Jun-24 02:32N 45°37' W 122°48'29217.7
2015-Jun-24 02:24N 46°05' W 122°56'34172.3
2015-Jun-24 02:13N 45°33' W 122°42'0 0.0
2015-Jun-24 01:25N 45°33' W 122°42'346375.0
2015-Jun-24 01:24N 46°05' W 122°56'14349.4
2015-Jun-24 01:22N 45°52' W 122°48'15555.9
2015-Jun-24 01:20N 45°37' W 122°48'0 0.0
2015-Jun-24 00:32N 45°37' W 122°48'15650.8
2015-Jun-24 00:31N 45°52' W 122°48'194640.1
2015-Jun-24 00:31N 45°33' W 122°42'6 6.0
2015-Jun-23 23:32N 45°37' W 122°48'15643.2
2015-Jun-23 23:31N 45°52' W 122°48'141487.0
2015-Jun-23 23:30N 46°05' W 122°56'20145.7
2015-Jun-23 23:22N 46°12' W 123°23'3237.6
2015-Jun-23 22:31N 45°52' W 122°48'141531.3
2015-Jun-23 22:30N 46°05' W 122°56'20512.5
2015-Jun-23 22:28N 46°12' W 123°23'43188.9
2015-Jun-23 22:14N 45°37' W 122°48'0 0.0
2015-Jun-23 21:29N 45°37' W 122°48'15643.2
2015-Jun-23 21:28N 45°52' W 122°48'14131.8
2015-Jun-23 21:21N 46°05' W 122°56'0 0.0
2015-Jun-23 20:33N 46°05' W 122°56'14349.3
2015-Jun-23 20:31N 45°52' W 122°48'15195.6
2015-Jun-23 20:26N 45°37' W 122°48'0 0.0
2015-Jun-23 19:29N 45°37' W 122°48'29344.0
2015-Jun-23 19:24N 46°05' W 122°56'2990.5
2015-Jun-23 19:05N 45°37' W 122°48'1585.8
2015-Jun-23 18:55N 45°52' W 122°48'14131.1
2015-Jun-23 18:48N 46°05' W 122°56'29 1.2
2015-Jun-22 19:32N 45°37' W 122°48'15627.8
2015-Jun-22 19:31N 45°52' W 122°48'14765.6
2015-Jun-22 19:30N 46°05' W 122°56'2056.6
2015-Jun-22 19:08N 46°12' W 123°23'4371.7
2015-Jun-22 18:32N 45°37' W 122°48'29678.9
2015-Jun-22 18:30N 46°05' W 122°56'20339.3
2015-Jun-22 18:26N 46°12' W 123°23'321536.6
2015-Jun-22 18:25N 45°52' W 122°48'1516.9
2015-Jun-22 17:32N 45°37' W 122°48'29311.8
2015-Jun-22 17:27N 46°05' W 122°56'201980.7
2015-Jun-22 17:26N 46°12' W 123°23'321496.7
2015-Jun-22 17:25N 45°52' W 122°48'1516.9
2015-Jun-22 16:33N 45°37' W 122°48'4330866.3
2015-Jun-22 16:32N 46°12' W 123°23'20485.3
2015-Jun-22 16:30N 46°05' W 122°56'14469.0
2015-Jun-22 16:28N 45°52' W 122°48'1516.0
2015-Jun-22 15:32N 45°37' W 122°48'4319291.4
2015-Jun-22 15:32N 46°12' W 123°23'321557.6
2015-Jun-22 15:31N 45°52' W 122°48'14733.3
2015-Jun-22 15:30N 46°05' W 122°56'0 0.0
2015-Jun-22 14:33N 46°05' W 122°56'293686.4
2015-Jun-22 14:33N 45°37' W 122°48'15651.1
2015-Jun-22 14:31N 45°52' W 122°48'32139.5
2015-Jun-22 14:17N 46°12' W 123°23'2024.2
2015-Jun-22 13:27N 46°05' W 122°56'29501.0
2015-Jun-22 13:24N 45°37' W 122°48'43414.9
2015-Jun-22 13:17N 46°12' W 123°23'321623.2
2015-Jun-22 13:16N 45°52' W 122°48'1418.8
2015-Jun-22 12:30N 46°05' W 122°56'293558.6
2015-Jun-22 12:30N 45°37' W 122°48'15650.8
2015-Jun-22 12:28N 45°52' W 122°48'321057.4
2015-Jun-22 12:26N 46°12' W 123°23'3234.8
2015-Jun-22 11:31N 45°52' W 122°48'14722.8
2015-Jun-22 11:30N 46°05' W 122°56'20340.9
2015-Jun-22 11:26N 46°12' W 123°23'43907.9
2015-Jun-22 11:24N 45°37' W 122°48'0 0.0
2015-Jun-22 10:33N 45°37' W 122°48'4312862.4
2015-Jun-22 10:32N 46°12' W 123°23'321578.9
2015-Jun-22 10:31N 45°52' W 122°48'14743.8
2015-Jun-22 10:30N 46°05' W 122°56'2930.0
2015-Jun-22 09:33N 45°37' W 122°48'4310290.0
2015-Jun-22 09:32N 46°12' W 123°23'32457.4
2015-Jun-22 09:28N 45°52' W 122°48'14205.8
2015-Jun-22 09:24N 46°05' W 122°56'0 0.0
2015-Jun-22 08:30N 46°05' W 122°56'202155.5
2015-Jun-22 08:29N 46°12' W 123°23'32189.0
2015-Jun-22 08:19N 45°52' W 122°48'15555.9
2015-Jun-22 08:18N 45°37' W 122°48'4356.9
2015-Jun-22 07:32N 46°12' W 123°23'20505.4
2015-Jun-22 07:30N 46°05' W 122°56'29516.0
2015-Jun-22 07:27N 45°37' W 122°48'15606.7
2015-Jun-22 07:25N 45°52' W 122°48'1415.7
2015-Jun-22 06:30N 46°05' W 122°56'294486.9
2015-Jun-22 06:30N 45°37' W 122°48'1585.8
2015-Jun-22 06:19N 45°52' W 122°48'1418.7
2015-Jun-22 05:33N 46°05' W 122°56'202035.7
2015-Jun-22 05:32N 46°12' W 123°23'321695.0
2015-Jun-22 05:31N 45°52' W 122°48'15567.9
2015-Jun-22 05:30N 45°37' W 122°48'2928.8
2015-Jun-22 04:30N 46°05' W 122°56'1438.2
2015-Jun-22 04:07N 45°52' W 122°48'3255.2
2015-Jun-22 03:32N 46°12' W 123°23'321623.4
2015-Jun-22 03:31N 45°52' W 122°48'14694.2
2015-Jun-22 03:30N 46°05' W 122°56'29516.0
2015-Jun-22 03:27N 45°37' W 122°48'4347.4
2015-Jun-22 02:32N 46°12' W 123°23'20495.2
2015-Jun-22 02:30N 46°05' W 122°56'295431.5
2015-Jun-22 02:30N 45°37' W 122°48'15202.1
2015-Jun-22 02:25N 45°52' W 122°48'0 0.0
2015-Jun-22 01:31N 45°52' W 122°48'14650.6
2015-Jun-22 01:30N 46°05' W 122°56'20127.5
2015-Jun-22 01:20N 46°12' W 123°23'43174.4
2015-Jun-22 01:06N 45°37' W 122°48'0 0.0
2015-Jun-22 00:33N 45°37' W 122°48'15620.8
2015-Jun-22 00:31N 45°52' W 122°48'14118.6
2015-Jun-22 00:24N 46°05' W 122°56'0 0.0
2015-Jun-21 23:33N 46°05' W 122°56'14520.4
2015-Jun-21 23:31N 45°52' W 122°48'15544.8
2015-Jun-21 23:30N 45°37' W 122°48'43787.4
2015-Jun-21 23:26N 46°12' W 123°23'0 0.0
2015-Jun-21 22:32N 46°12' W 123°23'321695.0
2015-Jun-21 22:31N 45°52' W 122°48'14659.0
2015-Jun-21 22:30N 46°05' W 122°56'296451.2
2015-Jun-21 22:30N 45°37' W 122°48'618.9
2015-Jun-21 22:11N 45°33' W 122°42'3452.9
2015-Jun-21 21:33N 46°05' W 122°56'202155.5
2015-Jun-21 21:32N 46°12' W 123°23'43219.8
2015-Jun-21 21:21N 45°37' W 122°48'15120.5
2015-Jun-21 21:13N 45°52' W 122°48'1521.9
2015-Jun-21 20:33N 45°37' W 122°48'438122.7
2015-Jun-21 20:32N 46°12' W 123°23'20145.1
2015-Jun-21 20:24N 46°05' W 122°56'14186.5
2015-Jun-21 20:19N 45°52' W 122°48'1417.6
2015-Jun-21 19:30N 46°05' W 122°56'14113.2
2015-Jun-21 19:22N 45°52' W 122°48'15556.1
2015-Jun-21 19:21N 45°37' W 122°48'0 0.0
2015-Jun-21 18:33N 45°37' W 122°48'29625.6
2015-Jun-21 18:30N 46°05' W 122°56'14525.7
2015-Jun-21 18:28N 45°52' W 122°48'32242.6
2015-Jun-21 18:20N 46°12' W 123°23'2022.9
2015-Jun-21 17:27N 46°05' W 122°56'202155.5
2015-Jun-21 17:26N 46°12' W 123°23'321720.1
2015-Jun-21 17:25N 45°52' W 122°48'15580.3
2015-Jun-21 17:24N 45°37' W 122°48'0 0.0
2015-Jun-21 16:33N 45°37' W 122°48'437716.6
2015-Jun-21 16:32N 46°12' W 123°23'32272.5
2015-Jun-21 16:25N 45°52' W 122°48'14198.7
2015-Jun-21 16:21N 46°05' W 122°56'2935.7
2015-Jun-21 15:33N 45°37' W 122°48'436710.1
2015-Jun-21 15:32N 46°12' W 123°23'20508.9
2015-Jun-21 15:30N 46°05' W 122°56'14542.3
2015-Jun-21 15:28N 45°52' W 122°48'1516.0
2015-Jun-21 14:33N 45°37' W 122°48'43767.8
2015-Jun-21 14:29N 46°12' W 123°23'321800.7
2015-Jun-21 14:28N 45°52' W 122°48'14650.6
2015-Jun-21 14:27N 46°05' W 122°56'2022.4
2015-Jun-21 13:32N 46°12' W 123°23'321858.8
2015-Jun-21 13:31N 45°52' W 122°48'14634.7
2015-Jun-21 13:30N 46°05' W 122°56'298599.9
2015-Jun-21 13:30N 45°37' W 122°48'0 0.0
2015-Jun-21 12:33N 45°37' W 122°48'437015.1
2015-Jun-21 12:32N 46°12' W 123°23'20502.0
2015-Jun-21 12:30N 46°05' W 122°56'14548.0
2015-Jun-21 12:28N 45°52' W 122°48'19139.5
2015-Jun-21 12:20N 45°33' W 122°42'4961.2
2015-Jun-21 11:32N 46°12' W 123°23'321921.0
2015-Jun-21 11:31N 45°52' W 122°48'14195.7
2015-Jun-21 11:27N 46°05' W 122°56'29540.4
2015-Jun-21 11:24N 45°37' W 122°48'636.2
2015-Jun-21 11:14N 45°33' W 122°42'0 0.0
2015-Jun-21 10:32N 45°33' W 122°42'491137.1
2015-Jun-21 10:29N 46°12' W 123°23'321720.3
2015-Jun-21 10:28N 45°52' W 122°48'1539.4
2015-Jun-21 10:06N 45°37' W 122°48'0 0.0
2015-Jun-21 09:33N 45°37' W 122°48'436174.0
2015-Jun-21 09:32N 46°12' W 123°23'32482.3
2015-Jun-21 09:28N 45°52' W 122°48'1483.3
2015-Jun-21 09:18N 46°05' W 122°56'34291.9
2015-Jun-21 09:11N 45°33' W 122°42'3453.0
2015-Jun-21 08:33N 46°05' W 122°56'2911466.5
2015-Jun-21 08:33N 45°37' W 122°48'436173.3
2015-Jun-21 08:32N 46°12' W 123°23'49884.4
2015-Jun-21 08:29N 45°33' W 122°42'19120.2
2015-Jun-21 08:19N 45°52' W 122°48'1519.1
2015-Jun-21 07:33N 45°37' W 122°48'695.1
2015-Jun-21 07:29N 45°33' W 122°42'191657.2
2015-Jun-21 07:28N 45°52' W 122°48'32952.6
2015-Jun-21 07:26N 46°12' W 123°23'2022.9
2015-Jun-21 06:33N 46°05' W 122°56'202093.9
2015-Jun-21 06:32N 46°12' W 123°23'43995.8
2015-Jun-21 06:30N 45°37' W 122°48'1535.1
2015-Jun-21 06:04N 45°52' W 122°48'1528.1
2015-Jun-21 05:33N 45°37' W 122°48'15628.1
2015-Jun-21 05:31N 45°52' W 122°48'14196.5
2015-Jun-21 05:27N 46°05' W 122°56'202035.7
2015-Jun-21 05:26N 46°12' W 123°23'3235.0
2015-Jun-21 04:31N 45°52' W 122°48'15556.3
2015-Jun-21 04:30N 45°37' W 122°48'435716.6
2015-Jun-21 04:29N 46°12' W 123°23'20508.9
2015-Jun-21 04:27N 46°05' W 122°56'34156.3
2015-Jun-21 04:14N 45°33' W 122°42'3449.2
2015-Jun-21 03:33N 46°05' W 122°56'14565.7
2015-Jun-21 03:31N 45°52' W 122°48'15556.1
2015-Jun-21 03:30N 45°37' W 122°48'43271.2
2015-Jun-21 03:20N 46°12' W 123°23'4354.1
2015-Jun-21 02:33N 45°37' W 122°48'15120.2
2015-Jun-21 02:25N 45°52' W 122°48'14486.4
2015-Jun-21 02:24N 46°05' W 122°56'2933.9
2015-Jun-21 01:33N 45°37' W 122°48'15627.8
2015-Jun-21 01:31N 45°52' W 122°48'14182.0
2015-Jun-21 01:27N 46°05' W 122°56'2932.0
2015-Jun-21 00:33N 45°37' W 122°48'15620.8
2015-Jun-21 00:31N 45°52' W 122°48'14520.6
2015-Jun-21 00:30N 46°05' W 122°56'34207.1
2015-Jun-21 00:20N 45°33' W 122°42'3442.6
2015-Jun-20 23:33N 46°05' W 122°56'1485.1
2015-Jun-20 23:22N 45°52' W 122°48'15539.3
2015-Jun-20 23:21N 45°37' W 122°48'2935.7
2015-Jun-20 22:33N 46°05' W 122°56'14712.9
2015-Jun-20 22:31N 45°52' W 122°48'15194.1
2015-Jun-20 22:27N 45°37' W 122°48'618.7
2015-Jun-20 22:08N 45°33' W 122°42'3457.1
2015-Jun-20 21:33N 46°05' W 122°56'14204.2
2015-Jun-20 21:28N 45°52' W 122°48'1545.4
2015-Jun-20 21:09N 45°37' W 122°48'2947.5
2015-Jun-20 20:33N 46°05' W 122°56'343187.5
2015-Jun-20 20:32N 45°33' W 122°42'192047.7
2015-Jun-20 20:31N 45°52' W 122°48'15556.1
2015-Jun-20 20:30N 45°37' W 122°48'0 0.0
2015-Jun-20 19:33N 45°37' W 122°48'298599.9
2015-Jun-20 19:33N 46°05' W 122°56'14743.8
2015-Jun-20 19:32N 45°52' W 122°48'1966.4
2015-Jun-20 19:14N 45°33' W 122°42'6 8.5
2015-Jun-20 18:33N 45°37' W 122°48'2914742.6
2015-Jun-20 18:33N 46°05' W 122°56'14203.3
2015-Jun-20 18:28N 45°52' W 122°48'1414.8
2015-Jun-20 17:30N 46°05' W 122°56'29618.0
2015-Jun-20 17:27N 45°37' W 122°48'1585.4
2015-Jun-20 17:17N 45°52' W 122°48'32393.3
2015-Jun-20 17:12N 46°12' W 123°23'4366.5
2015-Jun-20 16:33N 45°37' W 122°48'296449.9
2015-Jun-20 16:33N 46°05' W 122°56'20400.5
2015-Jun-20 16:30N 46°12' W 123°23'32269.9
2015-Jun-20 16:23N 45°52' W 122°48'1517.9
2015-Jun-20 15:33N 45°37' W 122°48'43779.5
2015-Jun-20 15:30N 46°12' W 123°23'20136.5
2015-Jun-20 15:21N 46°05' W 122°56'14765.4
2015-Jun-20 15:20N 45°52' W 122°48'3240.9
2015-Jun-20 14:33N 46°12' W 123°23'321987.2
2015-Jun-20 14:32N 45°52' W 122°48'15190.6
2015-Jun-20 14:27N 45°37' W 122°48'29140.4
2015-Jun-20 14:15N 46°05' W 122°56'0 0.0
2015-Jun-20 13:33N 46°05' W 122°56'29633.1
2015-Jun-20 13:30N 45°37' W 122°48'15628.1
2015-Jun-20 13:29N 45°52' W 122°48'32137.2
2015-Jun-20 13:15N 46°12' W 123°23'2029.2
2015-Jun-20 12:33N 46°05' W 122°56'2010469.4
2015-Jun-20 12:33N 46°12' W 123°23'32478.3
2015-Jun-20 12:29N 45°52' W 122°48'15556.1
2015-Jun-20 12:27N 45°37' W 122°48'684.4
2015-Jun-20 12:23N 45°33' W 122°42'6 7.1
2015-Jun-20 11:33N 45°37' W 122°48'297940.0
2015-Jun-20 11:33N 46°05' W 122°56'14754.6
2015-Jun-20 11:32N 45°52' W 122°48'32388.1
2015-Jun-20 11:27N 46°12' W 123°23'4347.9
2015-Jun-20 10:33N 45°37' W 122°48'295734.4
2015-Jun-20 10:33N 46°05' W 122°56'2036642.8
2015-Jun-20 10:33N 46°12' W 123°23'32273.8
2015-Jun-20 10:26N 45°52' W 122°48'1416.4
2015-Jun-20 09:33N 46°05' W 122°56'14777.1
2015-Jun-20 09:32N 45°52' W 122°48'15550.4
2015-Jun-20 09:30N 45°37' W 122°48'6301.3
2015-Jun-20 09:29N 45°33' W 122°42'49557.7
2015-Jun-20 09:24N 46°12' W 123°23'4350.9
2015-Jun-20 08:33N 45°37' W 122°48'296070.5
2015-Jun-20 08:33N 46°05' W 122°56'34524.4
2015-Jun-20 08:29N 45°33' W 122°42'194350.1
2015-Jun-20 08:29N 45°52' W 122°48'32113.3
2015-Jun-20 08:12N 46°12' W 123°23'2031.4
2015-Jun-20 07:33N 46°05' W 122°56'342088.4
2015-Jun-20 07:32N 45°33' W 122°42'196960.1
2015-Jun-20 07:32N 45°52' W 122°48'32937.2
2015-Jun-20 07:30N 46°12' W 123°23'43462.1
2015-Jun-20 07:24N 45°37' W 122°48'0 0.0
2015-Jun-20 06:30N 45°37' W 122°48'15643.2
2015-Jun-20 06:29N 45°52' W 122°48'14448.8
2015-Jun-20 06:27N 46°05' W 122°56'20134.2
2015-Jun-20 06:18N 46°12' W 123°23'3241.8
2015-Jun-20 05:32N 45°52' W 122°48'15556.1
2015-Jun-20 05:30N 45°37' W 122°48'29263.3
2015-Jun-20 05:23N 46°05' W 122°56'20391.9
2015-Jun-20 05:20N 46°12' W 123°23'4354.4
2015-Jun-20 04:33N 45°37' W 122°48'293035.9
2015-Jun-20 04:32N 46°05' W 122°56'2012214.3
2015-Jun-20 04:32N 46°12' W 123°23'32512.2
2015-Jun-20 04:29N 45°52' W 122°48'19131.4
2015-Jun-20 04:20N 45°33' W 122°42'6 7.5
2015-Jun-20 03:33N 45°37' W 122°48'6289.1
2015-Jun-20 03:32N 45°33' W 122°42'196962.2
2015-Jun-20 03:32N 45°52' W 122°48'14413.0
2015-Jun-20 03:30N 46°05' W 122°56'20377.8
2015-Jun-20 03:26N 46°12' W 123°23'4348.3
2015-Jun-20 02:33N 45°37' W 122°48'6285.0
2015-Jun-20 02:32N 45°33' W 122°42'19368.1
2015-Jun-20 02:29N 45°52' W 122°48'1477.7
2015-Jun-20 02:17N 46°05' W 122°56'3439.1
2015-Jun-20 01:26N 45°33' W 122°42'6202.8
2015-Jun-20 01:24N 45°37' W 122°48'15202.2
2015-Jun-20 01:20N 45°52' W 122°48'1461.4
2015-Jun-20 01:06N 46°05' W 122°56'2952.9
2015-Jun-20 00:33N 45°37' W 122°48'292949.1
2015-Jun-20 00:32N 46°05' W 122°56'34303.6
2015-Jun-20 00:26N 45°33' W 122°42'19368.3
2015-Jun-20 00:23N 45°52' W 122°48'32841.3
2015-Jun-20 00:20N 46°12' W 123°23'4351.2
2015-Jun-19 23:30N 45°37' W 122°48'29475.6
2015-Jun-19 23:26N 46°05' W 122°56'342954.3
2015-Jun-19 23:26N 45°33' W 122°42'199946.1
2015-Jun-19 23:26N 45°52' W 122°48'1516.9
2015-Jun-19 22:33N 45°37' W 122°48'292866.6
2015-Jun-19 22:33N 46°05' W 122°56'14229.3
2015-Jun-19 22:29N 45°52' W 122°48'1516.0
2015-Jun-19 21:33N 45°37' W 122°48'292789.1
2015-Jun-19 21:32N 46°05' W 122°56'141107.7
2015-Jun-19 21:32N 45°52' W 122°48'1948.6
2015-Jun-19 21:08N 45°33' W 122°42'6 9.3
2015-Jun-19 20:30N 45°37' W 122°48'292646.1
2015-Jun-19 20:29N 46°05' W 122°56'34550.6
2015-Jun-19 20:26N 45°33' W 122°42'19190.7
2015-Jun-19 20:20N 45°52' W 122°48'32355.7
2015-Jun-19 20:14N 46°12' W 123°23'4362.5
2015-Jun-19 19:33N 45°37' W 122°48'292457.1
2015-Jun-19 19:32N 46°05' W 122°56'141239.1
2015-Jun-19 19:32N 45°52' W 122°48'1414.6
2015-Jun-19 18:32N 46°05' W 122°56'1489.0
2015-Jun-19 18:23N 45°52' W 122°48'15117.3
2015-Jun-19 18:15N 45°37' W 122°48'647.8
2015-Jun-19 18:08N 45°33' W 122°42'3457.2
2015-Jun-19 17:32N 46°05' W 122°56'2014657.1
2015-Jun-19 17:32N 46°12' W 123°23'495003.1
2015-Jun-19 17:32N 45°33' W 122°42'19376.2
2015-Jun-19 17:29N 45°52' W 122°48'1553.5
2015-Jun-19 17:12N 45°37' W 122°48'2943.4
2015-Jun-19 16:32N 46°05' W 122°56'14127.9
2015-Jun-19 16:26N 45°52' W 122°48'15567.9
2015-Jun-19 16:24N 45°37' W 122°48'681.2
2015-Jun-19 16:20N 45°33' W 122°42'6 7.5
2015-Jun-19 15:33N 45°37' W 122°48'292517.6
2015-Jun-19 15:32N 46°05' W 122°56'1490.1
2015-Jun-19 15:23N 45°52' W 122°48'1516.0
2015-Jun-19 14:27N 45°37' W 122°48'29467.0
2015-Jun-19 14:23N 46°05' W 122°56'14234.4
2015-Jun-19 14:20N 45°52' W 122°48'32353.5
2015-Jun-19 14:14N 46°12' W 123°23'4362.5
2015-Jun-19 13:33N 45°37' W 122°48'433026.1
2015-Jun-19 13:32N 46°12' W 123°23'20431.1
2015-Jun-19 13:29N 46°05' W 122°56'141210.3
2015-Jun-19 13:29N 45°52' W 122°48'3234.0
2015-Jun-19 12:32N 46°12' W 123°23'431196.4
2015-Jun-19 12:30N 45°37' W 122°48'292646.1
2015-Jun-19 12:30N 46°05' W 122°56'14230.3
2015-Jun-19 12:26N 45°52' W 122°48'1516.9
2015-Jun-19 11:33N 45°37' W 122°48'15635.6
2015-Jun-19 11:32N 45°52' W 122°48'32356.8
2015-Jun-19 11:26N 46°12' W 123°23'2058.4
2015-Jun-19 11:05N 46°05' W 122°56'2953.4
2015-Jun-19 10:33N 45°37' W 122°48'292196.2
2015-Jun-19 10:32N 46°05' W 122°56'208142.9
2015-Jun-19 10:32N 46°12' W 123°23'32201.5
2015-Jun-19 10:23N 45°52' W 122°48'1517.9
2015-Jun-19 09:33N 45°37' W 122°48'292580.5
2015-Jun-19 09:33N 46°05' W 122°56'206662.3
2015-Jun-19 09:32N 46°12' W 123°23'32201.2
2015-Jun-19 09:23N 45°52' W 122°48'1517.9
2015-Jun-19 08:33N 45°37' W 122°48'433026.1
2015-Jun-19 08:32N 46°12' W 123°23'32548.8
2015-Jun-19 08:29N 45°52' W 122°48'14374.4
2015-Jun-19 08:27N 46°05' W 122°56'1415.9
2015-Jun-19 07:32N 45°52' W 122°48'14371.9
2015-Jun-19 07:29N 46°05' W 122°56'209160.7
2015-Jun-19 07:29N 46°12' W 123°23'493648.1
2015-Jun-19 07:29N 45°33' W 122°42'6263.8
2015-Jun-19 07:27N 45°37' W 122°48'1512.6
2015-Jun-19 06:17N 45°52' W 122°48'15192.7
2015-Jun-19 06:12N 45°37' W 122°48'43656.8
2015-Jun-19 06:08N 46°12' W 123°23'20444.2
2015-Jun-19 06:06N 46°05' W 122°56'2036.8
2015-Jun-19 05:32N 46°12' W 123°23'20428.6
2015-Jun-19 05:29N 46°05' W 122°56'141335.0
2015-Jun-19 05:29N 45°52' W 122°48'15194.1
2015-Jun-19 05:24N 45°37' W 122°48'0 0.0
2015-Jun-19 04:30N 45°37' W 122°48'15651.1
2015-Jun-19 04:29N 45°52' W 122°48'14369.1
2015-Jun-19 04:27N 46°05' W 122°56'206662.3
2015-Jun-19 04:26N 46°12' W 123°23'2022.7
2015-Jun-19 03:33N 46°05' W 122°56'14238.7
2015-Jun-19 03:29N 45°52' W 122°48'1565.3
2015-Jun-19 03:15N 45°37' W 122°48'0 0.0
2015-Jun-19 02:30N 45°37' W 122°48'292293.3
2015-Jun-19 02:29N 46°05' W 122°56'342163.0
2015-Jun-19 02:29N 45°33' W 122°42'19203.5
2015-Jun-19 02:23N 45°52' W 122°48'1517.9
2015-Jun-19 01:33N 45°37' W 122°48'1585.8
2015-Jun-19 01:23N 45°52' W 122°48'32224.7
2015-Jun-19 01:14N 46°12' W 123°23'20426.1
2015-Jun-19 01:11N 46°05' W 122°56'2945.0
2015-Jun-19 00:33N 45°37' W 122°48'292196.2
2015-Jun-19 00:32N 46°05' W 122°56'141487.5
2015-Jun-19 00:32N 45°52' W 122°48'1969.2
2015-Jun-19 00:15N 45°33' W 122°42'3444.2
2015-Jun-18 23:29N 46°05' W 122°56'14243.3
2015-Jun-18 23:26N 45°52' W 122°48'15544.8
2015-Jun-18 23:24N 45°37' W 122°48'2933.2
2015-Jun-18 22:32N 46°05' W 122°56'29208.9
2015-Jun-18 22:24N 45°37' W 122°48'15203.0
2015-Jun-18 22:20N 45°52' W 122°48'1519.1
2015-Jun-18 21:33N 45°37' W 122°48'432572.5
2015-Jun-18 21:32N 46°12' W 123°23'20428.6
2015-Jun-18 21:29N 46°05' W 122°56'141487.0
2015-Jun-18 21:29N 45°52' W 122°48'1516.0
2015-Jun-18 20:33N 45°37' W 122°48'292150.0
2015-Jun-18 20:33N 46°05' W 122°56'141406.6
2015-Jun-18 20:32N 45°52' W 122°48'1414.6
2015-Jun-18 19:32N 46°05' W 122°56'2010469.4
2015-Jun-18 19:32N 46°12' W 123°23'32567.8
2015-Jun-18 19:29N 45°52' W 122°48'1415.4
2015-Jun-18 18:33N 46°05' W 122°56'206107.1
2015-Jun-18 18:32N 46°12' W 123°23'32564.9
2015-Jun-18 18:29N 45°52' W 122°48'15562.0
2015-Jun-18 18:27N 45°37' W 122°48'0 0.0
2015-Jun-18 17:33N 45°37' W 122°48'291947.1
2015-Jun-18 17:32N 46°05' W 122°56'207328.6
2015-Jun-18 17:32N 46°12' W 123°23'32155.8
2015-Jun-18 17:20N 45°52' W 122°48'1519.1
2015-Jun-18 16:33N 45°37' W 122°48'432489.2
2015-Jun-18 16:32N 46°12' W 123°23'325763.0
2015-Jun-18 16:32N 45°52' W 122°48'14102.1
2015-Jun-18 16:23N 46°05' W 122°56'2930.6
2015-Jun-18 15:27N 45°37' W 122°48'432661.2
2015-Jun-18 15:26N 46°12' W 123°23'20423.6
2015-Jun-18 15:23N 46°05' W 122°56'141627.0
2015-Jun-18 15:23N 45°52' W 122°48'1517.9
2015-Jun-18 14:33N 45°37' W 122°48'432572.2
2015-Jun-18 14:32N 46°12' W 123°23'32565.0
2015-Jun-18 14:29N 45°52' W 122°48'14102.7
2015-Jun-18 14:21N 46°05' W 122°56'2025.3
2015-Jun-18 13:32N 46°12' W 123°23'325238.4
2015-Jun-18 13:32N 45°52' W 122°48'14356.5
2015-Jun-18 13:30N 46°05' W 122°56'0 0.0
2015-Jun-18 12:29N 46°05' W 122°56'141679.5
2015-Jun-18 12:29N 45°52' W 122°48'32753.3
2015-Jun-18 12:26N 46°12' W 123°23'4348.5
2015-Jun-18 11:33N 45°37' W 122°48'15659.1
2015-Jun-18 11:32N 45°52' W 122°48'32720.4
2015-Jun-18 11:29N 46°12' W 123°23'20208.2
2015-Jun-18 11:23N 46°05' W 122°56'2023.9
2015-Jun-18 10:32N 46°12' W 123°23'431330.6
2015-Jun-18 10:30N 45°37' W 122°48'29248.7
2015-Jun-18 10:23N 46°05' W 122°56'141859.4
2015-Jun-18 10:23N 45°52' W 122°48'19605.2
2015-Jun-18 10:21N 45°33' W 122°42'3441.5
2015-Jun-18 09:33N 46°05' W 122°56'207328.6
2015-Jun-18 09:32N 46°12' W 123°23'32105.1
2015-Jun-18 09:14N 45°52' W 122°48'15192.0
2015-Jun-18 09:09N 45°37' W 122°48'0 0.0
2015-Jun-18 08:33N 45°37' W 122°48'432303.5
2015-Jun-18 08:32N 46°12' W 123°23'32585.0
2015-Jun-18 08:29N 45°52' W 122°48'14156.3
2015-Jun-18 08:23N 46°05' W 122°56'2934.4
2015-Jun-18 07:33N 45°37' W 122°48'432411.4
2015-Jun-18 07:32N 46°12' W 123°23'20137.5
2015-Jun-18 07:23N 46°05' W 122°56'142081.8
2015-Jun-18 07:23N 45°52' W 122°48'1517.9
2015-Jun-18 06:33N 45°37' W 122°48'432204.7
2015-Jun-18 06:32N 46°12' W 123°23'20436.2
2015-Jun-18 06:29N 46°05' W 122°56'14250.3
2015-Jun-18 06:26N 45°52' W 122°48'3235.8
2015-Jun-18 05:32N 46°12' W 123°23'326403.3
2015-Jun-18 05:32N 45°52' W 122°48'14335.9
2015-Jun-18 05:29N 46°05' W 122°56'29214.1
2015-Jun-18 05:21N 45°37' W 122°48'655.1
2015-Jun-18 05:15N 45°33' W 122°42'0 0.0
2015-Jun-18 04:33N 45°33' W 122°42'6134.4
2015-Jun-18 04:30N 45°37' W 122°48'15635.3
2015-Jun-18 04:29N 45°52' W 122°48'32711.5
2015-Jun-18 04:26N 46°12' W 123°23'2014657.1
2015-Jun-18 04:26N 46°05' W 122°56'2932.6
2015-Jun-18 03:33N 45°37' W 122°48'432204.7
2015-Jun-18 03:32N 46°12' W 123°23'2073285.7
2015-Jun-18 03:32N 46°05' W 122°56'14273.9
2015-Jun-18 03:29N 45°52' W 122°48'1920.7
2015-Jun-18 02:33N 45°33' W 122°42'342633.2
2015-Jun-18 02:32N 46°05' W 122°56'144733.1
2015-Jun-18 02:32N 45°52' W 122°48'1583.8
2015-Jun-18 02:21N 45°37' W 122°48'43362.3
2015-Jun-18 02:14N 46°12' W 123°23'4362.9
2015-Jun-18 01:33N 45°37' W 122°48'0 0.0
2015-Jun-18 00:34N 45°37' W 122°48'291376.3
2015-Jun-18 00:32N 46°05' W 122°56'1447.7
2015-Jun-18 00:14N 45°52' W 122°48'1520.4
2015-Jun-17 23:31N 45°37' W 122°48'15643.2
2015-Jun-17 23:29N 45°52' W 122°48'19575.2
2015-Jun-17 23:27N 45°33' W 122°42'34107.1
2015-Jun-17 23:08N 46°05' W 122°56'2949.4
2015-Jun-17 22:33N 45°37' W 122°48'291517.6
2015-Jun-17 22:32N 46°05' W 122°56'144733.1
2015-Jun-17 22:32N 45°52' W 122°48'1515.2
2015-Jun-17 21:33N 45°37' W 122°48'432269.6
2015-Jun-17 21:32N 46°12' W 123°23'32600.2
2015-Jun-17 21:29N 45°52' W 122°48'1472.9
2015-Jun-17 21:17N 46°05' W 122°56'2939.3
2015-Jun-17 20:33N 45°37' W 122°48'432303.5
2015-Jun-17 20:32N 46°12' W 123°23'20134.2
2015-Jun-17 20:23N 46°05' W 122°56'146505.5
2015-Jun-17 20:23N 45°52' W 122°48'1923.2
2015-Jun-17 19:33N 45°33' W 122°42'342816.9
2015-Jun-17 19:32N 46°05' W 122°56'29159.3
2015-Jun-17 19:22N 45°37' W 122°48'432173.7
2015-Jun-17 19:20N 46°12' W 123°23'32594.1
2015-Jun-17 19:17N 45°52' W 122°48'1520.4
2015-Jun-17 18:34N 45°37' W 122°48'432057.8
2015-Jun-17 18:32N 46°12' W 123°23'2036642.8
2015-Jun-17 18:32N 46°05' W 122°56'14279.8
2015-Jun-17 18:29N 45°52' W 122°48'1415.2
2015-Jun-17 17:32N 46°05' W 122°56'145782.7
2015-Jun-17 17:32N 45°52' W 122°48'32333.1
2015-Jun-17 17:26N 46°12' W 123°23'43534.0
2015-Jun-17 17:22N 45°37' W 122°48'4352.3
2015-Jun-17 16:32N 46°12' W 123°23'2010469.4
2015-Jun-17 16:32N 46°05' W 122°56'14279.9
2015-Jun-17 16:29N 45°52' W 122°48'15561.7
2015-Jun-17 16:28N 45°37' W 122°48'4346.6
2015-Jun-17 15:32N 46°12' W 123°23'3210478.2
2015-Jun-17 15:32N 45°52' W 122°48'14299.2
2015-Jun-17 15:29N 46°05' W 122°56'29370.0
2015-Jun-17 15:25N 45°37' W 122°48'2932.9
2015-Jun-17 14:32N 46°05' W 122°56'1417354.7
2015-Jun-17 14:32N 45°52' W 122°48'15193.4
2015-Jun-17 14:28N 45°37' W 122°48'43352.4
2015-Jun-17 14:20N 46°12' W 123°23'0 0.0
2015-Jun-17 13:32N 46°12' W 123°23'431429.0
2015-Jun-17 13:31N 45°37' W 122°48'29398.4
2015-Jun-17 13:26N 46°05' W 122°56'14144.6
2015-Jun-17 13:20N 45°52' W 122°48'3240.1
2015-Jun-17 12:32N 46°12' W 123°23'3211526.0
2015-Jun-17 12:32N 45°52' W 122°48'15194.8
2015-Jun-17 12:28N 45°37' W 122°48'291290.0
2015-Jun-17 12:26N 46°05' W 122°56'2930.9
2015-Jun-17 11:31N 45°37' W 122°48'43605.3
2015-Jun-17 11:26N 46°12' W 123°23'2012214.3
2015-Jun-17 11:26N 46°05' W 122°56'1413016.0
2015-Jun-17 11:26N 45°52' W 122°48'0 0.0
2015-Jun-17 10:26N 45°52' W 122°48'15562.0
2015-Jun-17 10:25N 45°37' W 122°48'291243.6
2015-Jun-17 10:23N 46°05' W 122°56'2082.0
2015-Jun-17 10:08N 46°12' W 123°23'2033.9
2015-Jun-17 09:32N 46°05' W 122°56'1496.1
2015-Jun-17 09:23N 45°52' W 122°48'15562.0
2015-Jun-17 09:22N 45°37' W 122°48'43353.2
2015-Jun-17 09:14N 46°12' W 123°23'4358.8
2015-Jun-17 08:31N 45°37' W 122°48'29166.4
2015-Jun-17 08:20N 46°05' W 122°56'1417348.1
2015-Jun-17 08:20N 45°52' W 122°48'1517.9
2015-Jun-17 07:31N 45°37' W 122°48'43600.5
2015-Jun-17 07:26N 46°12' W 123°23'2014657.1
2015-Jun-17 07:26N 46°05' W 122°56'2929.3
2015-Jun-17 06:28N 45°37' W 122°48'43351.6
2015-Jun-17 06:20N 46°12' W 123°23'32629.8
2015-Jun-17 06:17N 45°52' W 122°48'3242.8
2015-Jun-17 05:32N 46°12' W 123°23'3223051.9
2015-Jun-17 05:32N 45°52' W 122°48'15556.1
2015-Jun-17 05:31N 45°37' W 122°48'29268.1
2015-Jun-17 05:24N 46°05' W 122°56'  
Track history (hours):
 
Tides and Currents Weather Stations Pressure Air Temp Water Temp Dewpoint Dewpoint Depression Visibility Wind Speed Wind Dir Waves Ship Positions

Zarling

Owner: Clean Rivers Co-op, Portland, OR. More information available from US FCC via Universal Licensing System.

Last reported at 2015-Jun-27 05:22 UTC. Time now 2015-Jul-01 19:12 UTC.
Position N 46°05' W 122°56'.

Length 12 m.

Type: Pollution control. MMSI: 3699126.

Date/timePositionNaut miles runAvg speedWind from/ knotsBaromVisibWave heightAir tempDewpointWater temp
2015-Jun-27 05:22N 46°05' W 122°56'2915.6
2015-Jun-27 03:32N 45°37' W 122°48'29235.6
2015-Jun-27 03:24N 46°05' W 122°56'2010.2
2015-Jun-27 01:24N 46°12' W 123°23'3237.5
2015-Jun-27 00:33N 45°52' W 122°48'15192.7
2015-Jun-27 00:29N 45°37' W 122°48'29167.3
2015-Jun-27 00:18N 46°05' W 122°56'1419.2
2015-Jun-26 23:33N 45°52' W 122°48'32681.9
2015-Jun-26 23:30N 46°12' W 123°23'2014657.1
2015-Jun-26 23:30N 46°05' W 122°56'29364.7
2015-Jun-26 23:26N 45°37' W 122°48'0 0.0
2015-Jun-26 22:32N 45°37' W 122°48'15202.2
2015-Jun-26 22:27N 45°52' W 122°48'14295.8
2015-Jun-26 22:24N 46°05' W 122°56'1415.2
2015-Jun-26 21:27N 45°52' W 122°48'14292.5
2015-Jun-26 21:24N 46°05' W 122°56'291042.4
2015-Jun-26 21:23N 45°37' W 122°48'2934.8
2015-Jun-26 20:33N 46°05' W 122°56'291032.0
2015-Jun-26 20:32N 45°37' W 122°48'432030.7
2015-Jun-26 20:30N 46°12' W 123°23'3212805.1
2015-Jun-26 20:30N 45°52' W 122°48'3233.8
2015-Jun-26 19:33N 46°12' W 123°23'3211526.0
2015-Jun-26 19:33N 45°52' W 122°48'15567.9
2015-Jun-26 19:32N 45°37' W 122°48'2976.9
2015-Jun-26 19:09N 46°05' W 122°56'0 0.0
2015-Jun-26 18:30N 46°05' W 122°56'14282.8
2015-Jun-26 18:27N 45°52' W 122°48'15550.4
2015-Jun-26 18:26N 45°37' W 122°48'1515.2
2015-Jun-26 17:27N 45°52' W 122°48'15561.7
2015-Jun-26 17:26N 45°37' W 122°48'431978.6
2015-Jun-26 17:24N 46°12' W 123°23'20201.3
2015-Jun-26 17:18N 46°05' W 122°56'2022.7
2015-Jun-26 16:24N 46°12' W 123°23'3214407.5
2015-Jun-26 16:24N 45°52' W 122°48'15550.4
2015-Jun-26 16:23N 45°37' W 122°48'291290.2
2015-Jun-26 16:21N 46°05' W 122°56'1418.1
2015-Jun-26 15:33N 45°52' W 122°48'32314.1
2015-Jun-26 15:27N 46°12' W 123°23'431754.2
2015-Jun-26 15:26N 45°37' W 122°48'29388.0
2015-Jun-26 15:21N 46°05' W 122°56'1418.1
2015-Jun-26 14:33N 45°52' W 122°48'15556.1
2015-Jun-26 14:32N 45°37' W 122°48'29128.9
2015-Jun-26 14:18N 46°05' W 122°56'20132.3
2015-Jun-26 14:09N 46°12' W 123°23'2034.1
2015-Jun-26 13:33N 46°05' W 122°56'2012214.3
2015-Jun-26 13:33N 46°12' W 123°23'431734.3
2015-Jun-26 13:32N 45°37' W 122°48'1566.4
2015-Jun-26 13:18N 45°52' W 122°48'1519.1
2015-Jun-26 12:32N 45°37' W 122°48'291228.6
2015-Jun-26 12:30N 46°05' W 122°56'20389.8
2015-Jun-26 12:27N 46°12' W 123°23'32677.9
2015-Jun-26 12:24N 45°52' W 122°48'1516.0
2015-Jun-26 11:29N 45°37' W 122°48'291214.1
2015-Jun-26 11:27N 46°05' W 122°56'207328.6
2015-Jun-26 11:27N 46°12' W 123°23'32681.9
2015-Jun-26 11:24N 45°52' W 122°48'0 0.0
2015-Jun-26 10:33N 45°52' W 122°48'15567.9
2015-Jun-26 10:32N 45°37' W 122°48'291200.2
2015-Jun-26 10:30N 46°05' W 122°56'2080.6
2015-Jun-26 10:15N 46°12' W 123°23'3246.0
2015-Jun-26 09:33N 45°52' W 122°48'14286.1
2015-Jun-26 09:30N 46°05' W 122°56'29376.7
2015-Jun-26 09:26N 45°37' W 122°48'43555.2
2015-Jun-26 09:21N 46°12' W 123°23'4352.1
2015-Jun-26 08:32N 45°37' W 122°48'15650.8
2015-Jun-26 08:30N 45°52' W 122°48'1417354.7
2015-Jun-26 08:30N 46°05' W 122°56'2928.0
2015-Jun-26 07:29N 45°37' W 122°48'1554.2
2015-Jun-26 07:12N 45°52' W 122°48'148674.0
2015-Jun-26 07:12N 46°05' W 122°56'1422.3
2015-Jun-26 06:33N 45°52' W 122°48'14279.8
2015-Jun-26 06:30N 46°05' W 122°56'291146.6
2015-Jun-26 06:29N 45°37' W 122°48'43131.0
2015-Jun-26 06:09N 46°12' W 123°23'2031.4
2015-Jun-26 05:30N 46°05' W 122°56'29380.8
2015-Jun-26 05:26N 45°37' W 122°48'15201.5
2015-Jun-26 05:21N 45°52' W 122°48'19160.1
2015-Jun-26 05:14N 45°33' W 122°42'6 7.8
2015-Jun-26 04:29N 45°37' W 122°48'291086.3
2015-Jun-26 04:27N 46°05' W 122°56'14299.1
2015-Jun-26 04:24N 45°52' W 122°48'0 0.0
2015-Jun-26 03:33N 45°52' W 122°48'14278.4
2015-Jun-26 03:30N 46°05' W 122°56'291146.6
2015-Jun-26 03:29N 45°37' W 122°48'1516.1
2015-Jun-26 02:33N 45°52' W 122°48'15545.0
2015-Jun-26 02:32N 45°37' W 122°48'291146.9
2015-Jun-26 02:30N 46°05' W 122°56'1415.3
2015-Jun-26 01:33N 45°52' W 122°48'15533.7
2015-Jun-26 01:32N 45°37' W 122°48'291214.1
2015-Jun-26 01:30N 46°05' W 122°56'1415.2
2015-Jun-26 00:33N 45°52' W 122°48'1413016.0
2015-Jun-26 00:33N 46°05' W 122°56'29379.5
2015-Jun-26 00:29N 45°37' W 122°48'1516.1
2015-Jun-25 23:33N 45°52' W 122°48'15550.2
2015-Jun-25 23:32N 45°37' W 122°48'291086.3
2015-Jun-25 23:30N 46°05' W 122°56'2929.4
2015-Jun-25 22:32N 45°37' W 122°48'15628.3
2015-Jun-25 22:30N 45°52' W 122°48'14282.8
2015-Jun-25 22:27N 46°05' W 122°56'0 0.0
2015-Jun-25 21:30N 46°05' W 122°56'14309.8
2015-Jun-25 21:27N 45°52' W 122°48'15550.6
2015-Jun-25 21:26N 45°37' W 122°48'4348.8
2015-Jun-25 20:33N 46°12' W 123°23'32715.9
2015-Jun-25 20:30N 45°52' W 122°48'145206.4
2015-Jun-25 20:30N 46°05' W 122°56'29388.0
2015-Jun-25 20:26N 45°37' W 122°48'4348.8
2015-Jun-25 19:33N 46°12' W 123°23'20209.4
2015-Jun-25 19:27N 46°05' W 122°56'29385.1
2015-Jun-25 19:23N 45°37' W 122°48'15643.2
2015-Jun-25 19:21N 45°52' W 122°48'1517.9
2015-Jun-25 18:32N 45°37' W 122°48'291109.7
2015-Jun-25 18:30N 46°05' W 122°56'20563.7
2015-Jun-25 18:28N 46°12' W 123°23'32288.9
2015-Jun-25 18:21N 45°52' W 122°48'0 0.0
2015-Jun-25 17:33N 45°52' W 122°48'15550.2
2015-Jun-25 17:32N 45°37' W 122°48'29373.9
2015-Jun-25 17:27N 46°05' W 122°56'20236.4
2015-Jun-25 17:22N 46°12' W 123°23'4351.3
2015-Jun-25 16:32N 45°37' W 122°48'291063.9
2015-Jun-25 16:30N 46°05' W 122°56'20234.9
2015-Jun-25 16:25N 46°12' W 123°23'32528.7
2015-Jun-25 16:21N 45°52' W 122°48'1518.0
2015-Jun-25 15:32N 45°37' W 122°48'15200.7
2015-Jun-25 15:27N 45°52' W 122°48'14140.0
2015-Jun-25 15:21N 46°05' W 122°56'20109.4
2015-Jun-25 15:10N 46°12' W 123°23'4367.3
2015-Jun-25 14:32N 45°37' W 122°48'15628.1
2015-Jun-25 14:30N 45°52' W 122°48'32800.5
2015-Jun-25 14:28N 46°12' W 123°23'20320.1
2015-Jun-25 14:24N 46°05' W 122°56'2931.1
2015-Jun-25 13:29N 45°37' W 122°48'15586.7
2015-Jun-25 13:27N 45°52' W 122°48'14269.8
2015-Jun-25 13:24N 46°05' W 122°56'20572.5
2015-Jun-25 13:22N 46°12' W 123°23'2010.9
2015-Jun-25 11:30N 46°05' W 122°56'14317.5
2015-Jun-25 11:28N 45°52' W 122°48'32352.5
2015-Jun-25 11:22N 46°12' W 123°23'43499.5
2015-Jun-25 11:17N 45°37' W 122°48'2936.9
2015-Jun-25 10:30N 46°05' W 122°56'291243.6
2015-Jun-25 10:29N 45°37' W 122°48'433430.0
2015-Jun-25 10:28N 46°12' W 123°23'32292.5
2015-Jun-25 10:22N 45°52' W 122°48'1517.9
2015-Jun-25 09:32N 45°37' W 122°48'15651.1
2015-Jun-25 09:31N 45°52' W 122°48'143470.9
2015-Jun-25 09:30N 46°05' W 122°56'2046.7
2015-Jun-25 09:04N 46°12' W 123°23'4379.9
2015-Jun-25 08:32N 45°37' W 122°48'15628.1
2015-Jun-25 08:31N 45°52' W 122°48'32806.0
2015-Jun-25 08:28N 46°12' W 123°23'20313.2
2015-Jun-25 08:24N 46°05' W 122°56'1416.2
2015-Jun-25 07:31N 45°52' W 122°48'142739.2
2015-Jun-25 07:30N 46°05' W 122°56'29398.4
2015-Jun-25 07:26N 45°37' W 122°48'432967.9
2015-Jun-25 07:25N 46°12' W 123°23'2023.6
2015-Jun-25 06:33N 46°05' W 122°56'20568.1
2015-Jun-25 06:31N 46°12' W 123°23'32292.5
2015-Jun-25 06:25N 45°52' W 122°48'15118.9
2015-Jun-25 06:17N 45°37' W 122°48'0 0.0
2015-Jun-25 05:32N 45°37' W 122°48'433150.0
2015-Jun-25 05:31N 46°12' W 123°23'201495.6
2015-Jun-25 05:30N 46°05' W 122°56'14313.6
2015-Jun-25 05:28N 45°52' W 122°48'0 0.0
2015-Jun-25 04:22N 45°52' W 122°48'142891.3
2015-Jun-25 04:21N 46°05' W 122°56'291323.3
2015-Jun-25 04:20N 45°37' W 122°48'1518.0
2015-Jun-25 03:31N 45°52' W 122°48'14137.4
2015-Jun-25 03:24N 46°05' W 122°56'291290.0
2015-Jun-25 03:23N 45°37' W 122°48'6257.4
2015-Jun-25 03:22N 45°33' W 122°42'49167.1
2015-Jun-25 03:04N 46°12' W 123°23'4380.2
2015-Jun-25 02:32N 45°37' W 122°48'1584.9
2015-Jun-25 02:22N 45°52' W 122°48'14262.8
2015-Jun-25 02:18N 46°05' W 122°56'3442.3
2015-Jun-25 01:31N 45°33' W 122°42'6219.7
2015-Jun-25 01:29N 45°37' W 122°48'15120.5
2015-Jun-25 01:22N 45°52' W 122°48'14137.4
2015-Jun-25 01:15N 46°05' W 122°56'0 0.0
2015-Jun-25 00:30N 46°05' W 122°56'14325.4
2015-Jun-25 00:28N 45°52' W 122°48'15550.4
2015-Jun-25 00:26N 45°37' W 122°48'0 0.0
2015-Jun-24 23:32N 45°37' W 122°48'43662.4
2015-Jun-24 23:28N 46°12' W 123°23'32554.1
2015-Jun-24 23:25N 45°52' W 122°48'142168.5
2015-Jun-24 23:24N 46°05' W 122°56'1416.2
2015-Jun-24 22:31N 45°52' W 122°48'142082.6
2015-Jun-24 22:30N 46°05' W 122°56'20555.2
2015-Jun-24 22:28N 46°12' W 123°23'43320.2
2015-Jun-24 22:20N 45°37' W 122°48'0 0.0
2015-Jun-24 21:32N 45°37' W 122°48'15203.0
2015-Jun-24 21:28N 45°52' W 122°48'14256.5
2015-Jun-24 21:24N 46°05' W 122°56'20559.4
2015-Jun-24 21:22N 46°12' W 123°23'2023.6
2015-Jun-24 20:30N 46°05' W 122°56'14331.5
2015-Jun-24 20:28N 45°52' W 122°48'15556.1
2015-Jun-24 20:26N 45°37' W 122°48'43648.5
2015-Jun-24 20:22N 46°12' W 123°23'2023.6
2015-Jun-24 19:30N 46°05' W 122°56'14331.6
2015-Jun-24 19:28N 45°52' W 122°48'15117.1
2015-Jun-24 19:20N 45°37' W 122°48'43662.4
2015-Jun-24 19:16N 46°12' W 123°23'0 0.0
2015-Jun-24 18:31N 46°12' W 123°23'201495.6
2015-Jun-24 18:30N 46°05' W 122°56'291340.5
2015-Jun-24 18:29N 45°37' W 122°48'2930.9
2015-Jun-24 17:33N 46°05' W 122°56'14100.5
2015-Jun-24 17:25N 45°52' W 122°48'15544.5
2015-Jun-24 17:23N 45°37' W 122°48'43198.6
2015-Jun-24 17:10N 46°12' W 123°23'2030.7
2015-Jun-24 16:30N 46°05' W 122°56'14333.7
2015-Jun-24 16:28N 45°52' W 122°48'32753.3
2015-Jun-24 16:25N 46°12' W 123°23'43320.2
2015-Jun-24 16:17N 45°37' W 122°48'2939.2
2015-Jun-24 15:33N 46°05' W 122°56'291474.6
2015-Jun-24 15:32N 45°37' W 122°48'43645.8
2015-Jun-24 15:28N 46°12' W 123°23'32570.6
2015-Jun-24 15:25N 45°52' W 122°48'1516.9
2015-Jun-24 14:32N 45°37' W 122°48'15635.6
2015-Jun-24 14:31N 45°52' W 122°48'32743.6
2015-Jun-24 14:28N 46°12' W 123°23'20314.5
2015-Jun-24 14:24N 46°05' W 122°56'2933.0
2015-Jun-24 13:32N 45°37' W 122°48'15675.8
2015-Jun-24 13:31N 45°52' W 122°48'32220.4
2015-Jun-24 13:22N 46°12' W 123°23'20327.2
2015-Jun-24 13:18N 46°05' W 122°56'1418.2
2015-Jun-24 12:31N 45°52' W 122°48'14133.2
2015-Jun-24 12:24N 46°05' W 122°56'291517.9
2015-Jun-24 12:23N 45°37' W 122°48'43637.8
2015-Jun-24 12:19N 46°12' W 123°23'3239.8
2015-Jun-24 11:31N 45°52' W 122°48'141679.5
2015-Jun-24 11:30N 46°05' W 122°56'291474.6
2015-Jun-24 11:29N 45°37' W 122°48'43197.6
2015-Jun-24 11:16N 46°12' W 123°23'2028.5
2015-Jun-24 10:33N 46°05' W 122°56'291563.9
2015-Jun-24 10:32N 45°37' W 122°48'15202.2
2015-Jun-24 10:28N 45°52' W 122°48'32339.0
2015-Jun-24 10:22N 46°12' W 123°23'4351.5
2015-Jun-24 09:32N 45°37' W 122°48'29905.4
2015-Jun-24 09:30N 46°05' W 122°56'20563.7
2015-Jun-24 09:28N 46°12' W 123°23'32576.3
2015-Jun-24 09:25N 45°52' W 122°48'1416.9
2015-Jun-24 08:33N 46°05' W 122°56'291517.6
2015-Jun-24 08:32N 45°37' W 122°48'43632.5
2015-Jun-24 08:28N 46°12' W 123°23'32206.2
2015-Jun-24 08:19N 45°52' W 122°48'1419.1
2015-Jun-24 07:33N 46°05' W 122°56'291563.6
2015-Jun-24 07:32N 45°37' W 122°48'43255.5
2015-Jun-24 07:22N 46°12' W 123°23'326065.6
2015-Jun-24 07:22N 45°52' W 122°48'1516.0
2015-Jun-24 06:26N 45°37' W 122°48'29217.7
2015-Jun-24 06:18N 46°05' W 122°56'14349.4
2015-Jun-24 06:16N 45°52' W 122°48'1420.4
2015-Jun-24 05:33N 46°05' W 122°56'20551.0
2015-Jun-24 05:31N 46°12' W 123°23'327202.9
2015-Jun-24 05:31N 45°52' W 122°48'15116.3
2015-Jun-24 05:23N 45°37' W 122°48'0 0.0
2015-Jun-24 04:32N 45°37' W 122°48'29897.4
2015-Jun-24 04:30N 46°05' W 122°56'20559.4
2015-Jun-24 04:28N 46°12' W 123°23'2022.3
2015-Jun-24 03:33N 46°05' W 122°56'291612.5
2015-Jun-24 03:32N 45°37' W 122°48'15650.8
2015-Jun-24 03:31N 45°52' W 122°48'32335.1
2015-Jun-24 03:25N 46°12' W 123°23'49450.1
2015-Jun-24 03:19N 45°33' W 122°42'6 7.6
2015-Jun-24 02:32N 45°37' W 122°48'29217.7
2015-Jun-24 02:24N 46°05' W 122°56'34172.3
2015-Jun-24 02:13N 45°33' W 122°42'0 0.0
2015-Jun-24 01:25N 45°33' W 122°42'346375.0
2015-Jun-24 01:24N 46°05' W 122°56'14349.4
2015-Jun-24 01:22N 45°52' W 122°48'15555.9
2015-Jun-24 01:20N 45°37' W 122°48'0 0.0
2015-Jun-24 00:32N 45°37' W 122°48'15650.8
2015-Jun-24 00:31N 45°52' W 122°48'194640.1
2015-Jun-24 00:31N 45°33' W 122°42'6 6.0
2015-Jun-23 23:32N 45°37' W 122°48'15643.2
2015-Jun-23 23:31N 45°52' W 122°48'141487.0
2015-Jun-23 23:30N 46°05' W 122°56'20145.7
2015-Jun-23 23:22N 46°12' W 123°23'3237.6
2015-Jun-23 22:31N 45°52' W 122°48'141531.3
2015-Jun-23 22:30N 46°05' W 122°56'20512.5
2015-Jun-23 22:28N 46°12' W 123°23'43188.9
2015-Jun-23 22:14N 45°37' W 122°48'0 0.0
2015-Jun-23 21:29N 45°37' W 122°48'15643.2
2015-Jun-23 21:28N 45°52' W 122°48'14131.8
2015-Jun-23 21:21N 46°05' W 122°56'0 0.0
2015-Jun-23 20:33N 46°05' W 122°56'14349.3
2015-Jun-23 20:31N 45°52' W 122°48'15195.6
2015-Jun-23 20:26N 45°37' W 122°48'0 0.0
2015-Jun-23 19:29N 45°37' W 122°48'29344.0
2015-Jun-23 19:24N 46°05' W 122°56'2990.5
2015-Jun-23 19:05N 45°37' W 122°48'1585.8
2015-Jun-23 18:55N 45°52' W 122°48'14131.1
2015-Jun-23 18:48N 46°05' W 122°56'29 1.2
2015-Jun-22 19:32N 45°37' W 122°48'15627.8
2015-Jun-22 19:31N 45°52' W 122°48'14765.6
2015-Jun-22 19:30N 46°05' W 122°56'2056.6
2015-Jun-22 19:08N 46°12' W 123°23'4371.7
2015-Jun-22 18:32N 45°37' W 122°48'29678.9
2015-Jun-22 18:30N 46°05' W 122°56'20339.3
2015-Jun-22 18:26N 46°12' W 123°23'321536.6
2015-Jun-22 18:25N 45°52' W 122°48'1516.9
2015-Jun-22 17:32N 45°37' W 122°48'29311.8
2015-Jun-22 17:27N 46°05' W 122°56'201980.7
2015-Jun-22 17:26N 46°12' W 123°23'321496.7
2015-Jun-22 17:25N 45°52' W 122°48'1516.9
2015-Jun-22 16:33N 45°37' W 122°48'4330866.3
2015-Jun-22 16:32N 46°12' W 123°23'20485.3
2015-Jun-22 16:30N 46°05' W 122°56'14469.0
2015-Jun-22 16:28N 45°52' W 122°48'1516.0
2015-Jun-22 15:32N 45°37' W 122°48'4319291.4
2015-Jun-22 15:32N 46°12' W 123°23'321557.6
2015-Jun-22 15:31N 45°52' W 122°48'14733.3
2015-Jun-22 15:30N 46°05' W 122°56'0 0.0
2015-Jun-22 14:33N 46°05' W 122°56'293686.4
2015-Jun-22 14:33N 45°37' W 122°48'15651.1
2015-Jun-22 14:31N 45°52' W 122°48'32139.5
2015-Jun-22 14:17N 46°12' W 123°23'2024.2
2015-Jun-22 13:27N 46°05' W 122°56'29501.0
2015-Jun-22 13:24N 45°37' W 122°48'43414.9
2015-Jun-22 13:17N 46°12' W 123°23'321623.2
2015-Jun-22 13:16N 45°52' W 122°48'1418.8
2015-Jun-22 12:30N 46°05' W 122°56'293558.6
2015-Jun-22 12:30N 45°37' W 122°48'15650.8
2015-Jun-22 12:28N 45°52' W 122°48'321057.4
2015-Jun-22 12:26N 46°12' W 123°23'3234.8
2015-Jun-22 11:31N 45°52' W 122°48'14722.8
2015-Jun-22 11:30N 46°05' W 122°56'20340.9
2015-Jun-22 11:26N 46°12' W 123°23'43907.9
2015-Jun-22 11:24N 45°37' W 122°48'0 0.0
2015-Jun-22 10:33N 45°37' W 122°48'4312862.4
2015-Jun-22 10:32N 46°12' W 123°23'321578.9
2015-Jun-22 10:31N 45°52' W 122°48'14743.8
2015-Jun-22 10:30N 46°05' W 122°56'2930.0
2015-Jun-22 09:33N 45°37' W 122°48'4310290.0
2015-Jun-22 09:32N 46°12' W 123°23'32457.4
2015-Jun-22 09:28N 45°52' W 122°48'14205.8
2015-Jun-22 09:24N 46°05' W 122°56'0 0.0
2015-Jun-22 08:30N 46°05' W 122°56'202155.5
2015-Jun-22 08:29N 46°12' W 123°23'32189.0
2015-Jun-22 08:19N 45°52' W 122°48'15555.9
2015-Jun-22 08:18N 45°37' W 122°48'4356.9
2015-Jun-22 07:32N 46°12' W 123°23'20505.4
2015-Jun-22 07:30N 46°05' W 122°56'29516.0
2015-Jun-22 07:27N 45°37' W 122°48'15606.7
2015-Jun-22 07:25N 45°52' W 122°48'1415.7
2015-Jun-22 06:30N 46°05' W 122°56'294486.9
2015-Jun-22 06:30N 45°37' W 122°48'1585.8
2015-Jun-22 06:19N 45°52' W 122°48'1418.7
2015-Jun-22 05:33N 46°05' W 122°56'202035.7
2015-Jun-22 05:32N 46°12' W 123°23'321695.0
2015-Jun-22 05:31N 45°52' W 122°48'15567.9
2015-Jun-22 05:30N 45°37' W 122°48'2928.8
2015-Jun-22 04:30N 46°05' W 122°56'1438.2
2015-Jun-22 04:07N 45°52' W 122°48'3255.2
2015-Jun-22 03:32N 46°12' W 123°23'321623.4
2015-Jun-22 03:31N 45°52' W 122°48'14694.2
2015-Jun-22 03:30N 46°05' W 122°56'29516.0
2015-Jun-22 03:27N 45°37' W 122°48'4347.4
2015-Jun-22 02:32N 46°12' W 123°23'20495.2
2015-Jun-22 02:30N 46°05' W 122°56'295431.5
2015-Jun-22 02:30N 45°37' W 122°48'15202.1
2015-Jun-22 02:25N 45°52' W 122°48'0 0.0
2015-Jun-22 01:31N 45°52' W 122°48'14650.6
2015-Jun-22 01:30N 46°05' W 122°56'20127.5
2015-Jun-22 01:20N 46°12' W 123°23'43174.4
2015-Jun-22 01:06N 45°37' W 122°48'0 0.0
2015-Jun-22 00:33N 45°37' W 122°48'15620.8
2015-Jun-22 00:31N 45°52' W 122°48'14118.6
2015-Jun-22 00:24N 46°05' W 122°56'0 0.0
2015-Jun-21 23:33N 46°05' W 122°56'14520.4
2015-Jun-21 23:31N 45°52' W 122°48'15544.8
2015-Jun-21 23:30N 45°37' W 122°48'43787.4
2015-Jun-21 23:26N 46°12' W 123°23'0 0.0
2015-Jun-21 22:32N 46°12' W 123°23'321695.0
2015-Jun-21 22:31N 45°52' W 122°48'14659.0
2015-Jun-21 22:30N 46°05' W 122°56'296451.2
2015-Jun-21 22:30N 45°37' W 122°48'618.9
2015-Jun-21 22:11N 45°33' W 122°42'3452.9
2015-Jun-21 21:33N 46°05' W 122°56'202155.5
2015-Jun-21 21:32N 46°12' W 123°23'43219.8
2015-Jun-21 21:21N 45°37' W 122°48'15120.5
2015-Jun-21 21:13N 45°52' W 122°48'1521.9
2015-Jun-21 20:33N 45°37' W 122°48'438122.7
2015-Jun-21 20:32N 46°12' W 123°23'20145.1
2015-Jun-21 20:24N 46°05' W 122°56'14186.5
2015-Jun-21 20:19N 45°52' W 122°48'1417.6
2015-Jun-21 19:30N 46°05' W 122°56'14113.2
2015-Jun-21 19:22N 45°52' W 122°48'15556.1
2015-Jun-21 19:21N 45°37' W 122°48'0 0.0
2015-Jun-21 18:33N 45°37' W 122°48'29625.6
2015-Jun-21 18:30N 46°05' W 122°56'14525.7
2015-Jun-21 18:28N 45°52' W 122°48'32242.6
2015-Jun-21 18:20N 46°12' W 123°23'2022.9
2015-Jun-21 17:27N 46°05' W 122°56'202155.5
2015-Jun-21 17:26N 46°12' W 123°23'321720.1
2015-Jun-21 17:25N 45°52' W 122°48'15580.3
2015-Jun-21 17:24N 45°37' W 122°48'0 0.0
2015-Jun-21 16:33N 45°37' W 122°48'437716.6
2015-Jun-21 16:32N 46°12' W 123°23'32272.5
2015-Jun-21 16:25N 45°52' W 122°48'14198.7
2015-Jun-21 16:21N 46°05' W 122°56'2935.7
2015-Jun-21 15:33N 45°37' W 122°48'436710.1
2015-Jun-21 15:32N 46°12' W 123°23'20508.9
2015-Jun-21 15:30N 46°05' W 122°56'14542.3
2015-Jun-21 15:28N 45°52' W 122°48'1516.0
2015-Jun-21 14:33N 45°37' W 122°48'43767.8
2015-Jun-21 14:29N 46°12' W 123°23'321800.7
2015-Jun-21 14:28N 45°52' W 122°48'14650.6
2015-Jun-21 14:27N 46°05' W 122°56'2022.4
2015-Jun-21 13:32N 46°12' W 123°23'321858.8
2015-Jun-21 13:31N 45°52' W 122°48'14634.7
2015-Jun-21 13:30N 46°05' W 122°56'298599.9
2015-Jun-21 13:30N 45°37' W 122°48'0 0.0
2015-Jun-21 12:33N 45°37' W 122°48'437015.1
2015-Jun-21 12:32N 46°12' W 123°23'20502.0
2015-Jun-21 12:30N 46°05' W 122°56'14548.0
2015-Jun-21 12:28N 45°52' W 122°48'19139.5
2015-Jun-21 12:20N 45°33' W 122°42'4961.2
2015-Jun-21 11:32N 46°12' W 123°23'321921.0
2015-Jun-21 11:31N 45°52' W 122°48'14195.7
2015-Jun-21 11:27N 46°05' W 122°56'29540.4
2015-Jun-21 11:24N 45°37' W 122°48'636.2
2015-Jun-21 11:14N 45°33' W 122°42'0 0.0
2015-Jun-21 10:32N 45°33' W 122°42'491137.1
2015-Jun-21 10:29N 46°12' W 123°23'321720.3
2015-Jun-21 10:28N 45°52' W 122°48'1539.4
2015-Jun-21 10:06N 45°37' W 122°48'0 0.0
2015-Jun-21 09:33N 45°37' W 122°48'436174.0
2015-Jun-21 09:32N 46°12' W 123°23'32482.3
2015-Jun-21 09:28N 45°52' W 122°48'1483.3
2015-Jun-21 09:18N 46°05' W 122°56'34291.9
2015-Jun-21 09:11N 45°33' W 122°42'3453.0
2015-Jun-21 08:33N 46°05' W 122°56'2911466.5
2015-Jun-21 08:33N 45°37' W 122°48'436173.3
2015-Jun-21 08:32N 46°12' W 123°23'49884.4
2015-Jun-21 08:29N 45°33' W 122°42'19120.2
2015-Jun-21 08:19N 45°52' W 122°48'1519.1
2015-Jun-21 07:33N 45°37' W 122°48'695.1
2015-Jun-21 07:29N 45°33' W 122°42'191657.2
2015-Jun-21 07:28N 45°52' W 122°48'32952.6
2015-Jun-21 07:26N 46°12' W 123°23'2022.9
2015-Jun-21 06:33N 46°05' W 122°56'202093.9
2015-Jun-21 06:32N 46°12' W 123°23'43995.8
2015-Jun-21 06:30N 45°37' W 122°48'1535.1
2015-Jun-21 06:04N 45°52' W 122°48'1528.1
2015-Jun-21 05:33N 45°37' W 122°48'15628.1
2015-Jun-21 05:31N 45°52' W 122°48'14196.5
2015-Jun-21 05:27N 46°05' W 122°56'202035.7
2015-Jun-21 05:26N 46°12' W 123°23'3235.0
2015-Jun-21 04:31N 45°52' W 122°48'15556.3
2015-Jun-21 04:30N 45°37' W 122°48'435716.6
2015-Jun-21 04:29N 46°12' W 123°23'20508.9
2015-Jun-21 04:27N 46°05' W 122°56'34156.3
2015-Jun-21 04:14N 45°33' W 122°42'3449.2
2015-Jun-21 03:33N 46°05' W 122°56'14565.7
2015-Jun-21 03:31N 45°52' W 122°48'15556.1
2015-Jun-21 03:30N 45°37' W 122°48'43271.2
2015-Jun-21 03:20N 46°12' W 123°23'4354.1
2015-Jun-21 02:33N 45°37' W 122°48'15120.2
2015-Jun-21 02:25N 45°52' W 122°48'14486.4
2015-Jun-21 02:24N 46°05' W 122°56'2933.9
2015-Jun-21 01:33N 45°37' W 122°48'15627.8
2015-Jun-21 01:31N 45°52' W 122°48'14182.0
2015-Jun-21 01:27N 46°05' W 122°56'2932.0
2015-Jun-21 00:33N 45°37' W 122°48'15620.8
2015-Jun-21 00:31N 45°52' W 122°48'14520.6
2015-Jun-21 00:30N 46°05' W 122°56'34207.1
2015-Jun-21 00:20N 45°33' W 122°42'3442.6
2015-Jun-20 23:33N 46°05' W 122°56'1485.1
2015-Jun-20 23:22N 45°52' W 122°48'15539.3
2015-Jun-20 23:21N 45°37' W 122°48'2935.7
2015-Jun-20 22:33N 46°05' W 122°56'14712.9
2015-Jun-20 22:31N 45°52' W 122°48'15194.1
2015-Jun-20 22:27N 45°37' W 122°48'618.7
2015-Jun-20 22:08N 45°33' W 122°42'3457.1
2015-Jun-20 21:33N 46°05' W 122°56'14204.2
2015-Jun-20 21:28N 45°52' W 122°48'1545.4
2015-Jun-20 21:09N 45°37' W 122°48'2947.5
2015-Jun-20 20:33N 46°05' W 122°56'343187.5
2015-Jun-20 20:32N 45°33' W 122°42'192047.7
2015-Jun-20 20:31N 45°52' W 122°48'15556.1
2015-Jun-20 20:30N 45°37' W 122°48'0 0.0
2015-Jun-20 19:33N 45°37' W 122°48'298599.9
2015-Jun-20 19:33N 46°05' W 122°56'14743.8
2015-Jun-20 19:32N 45°52' W 122°48'1966.4
2015-Jun-20 19:14N 45°33' W 122°42'6 8.5
2015-Jun-20 18:33N 45°37' W 122°48'2914742.6
2015-Jun-20 18:33N 46°05' W 122°56'14203.3
2015-Jun-20 18:28N 45°52' W 122°48'1414.8
2015-Jun-20 17:30N 46°05' W 122°56'29618.0
2015-Jun-20 17:27N 45°37' W 122°48'1585.4
2015-Jun-20 17:17N 45°52' W 122°48'32393.3
2015-Jun-20 17:12N 46°12' W 123°23'4366.5
2015-Jun-20 16:33N 45°37' W 122°48'296449.9
2015-Jun-20 16:33N 46°05' W 122°56'20400.5
2015-Jun-20 16:30N 46°12' W 123°23'32269.9
2015-Jun-20 16:23N 45°52' W 122°48'1517.9
2015-Jun-20 15:33N 45°37' W 122°48'43779.5
2015-Jun-20 15:30N 46°12' W 123°23'20136.5
2015-Jun-20 15:21N 46°05' W 122°56'14765.4
2015-Jun-20 15:20N 45°52' W 122°48'3240.9
2015-Jun-20 14:33N 46°12' W 123°23'321987.2
2015-Jun-20 14:32N 45°52' W 122°48'15190.6
2015-Jun-20 14:27N 45°37' W 122°48'29140.4
2015-Jun-20 14:15N 46°05' W 122°56'0 0.0
2015-Jun-20 13:33N 46°05' W 122°56'29633.1
2015-Jun-20 13:30N 45°37' W 122°48'15628.1
2015-Jun-20 13:29N 45°52' W 122°48'32137.2
2015-Jun-20 13:15N 46°12' W 123°23'2029.2
2015-Jun-20 12:33N 46°05' W 122°56'2010469.4
2015-Jun-20 12:33N 46°12' W 123°23'32478.3
2015-Jun-20 12:29N 45°52' W 122°48'15556.1
2015-Jun-20 12:27N 45°37' W 122°48'684.4
2015-Jun-20 12:23N 45°33' W 122°42'6 7.1
2015-Jun-20 11:33N 45°37' W 122°48'297940.0
2015-Jun-20 11:33N 46°05' W 122°56'14754.6
2015-Jun-20 11:32N 45°52' W 122°48'32388.1
2015-Jun-20 11:27N 46°12' W 123°23'4347.9
2015-Jun-20 10:33N 45°37' W 122°48'295734.4
2015-Jun-20 10:33N 46°05' W 122°56'2036642.8
2015-Jun-20 10:33N 46°12' W 123°23'32273.8
2015-Jun-20 10:26N 45°52' W 122°48'1416.4
2015-Jun-20 09:33N 46°05' W 122°56'14777.1
2015-Jun-20 09:32N 45°52' W 122°48'15550.4
2015-Jun-20 09:30N 45°37' W 122°48'6301.3
2015-Jun-20 09:29N 45°33' W 122°42'49557.7
2015-Jun-20 09:24N 46°12' W 123°23'4350.9
2015-Jun-20 08:33N 45°37' W 122°48'296070.5
2015-Jun-20 08:33N 46°05' W 122°56'34524.4
2015-Jun-20 08:29N 45°33' W 122°42'194350.1
2015-Jun-20 08:29N 45°52' W 122°48'32113.3
2015-Jun-20 08:12N 46°12' W 123°23'2031.4
2015-Jun-20 07:33N 46°05' W 122°56'342088.4
2015-Jun-20 07:32N 45°33' W 122°42'196960.1
2015-Jun-20 07:32N 45°52' W 122°48'32937.2
2015-Jun-20 07:30N 46°12' W 123°23'43462.1
2015-Jun-20 07:24N 45°37' W 122°48'0 0.0
2015-Jun-20 06:30N 45°37' W 122°48'15643.2
2015-Jun-20 06:29N 45°52' W 122°48'14448.8
2015-Jun-20 06:27N 46°05' W 122°56'20134.2
2015-Jun-20 06:18N 46°12' W 123°23'3241.8
2015-Jun-20 05:32N 45°52' W 122°48'15556.1
2015-Jun-20 05:30N 45°37' W 122°48'29263.3
2015-Jun-20 05:23N 46°05' W 122°56'20391.9
2015-Jun-20 05:20N 46°12' W 123°23'4354.4
2015-Jun-20 04:33N 45°37' W 122°48'293035.9
2015-Jun-20 04:32N 46°05' W 122°56'2012214.3
2015-Jun-20 04:32N 46°12' W 123°23'32512.2
2015-Jun-20 04:29N 45°52' W 122°48'19131.4
2015-Jun-20 04:20N 45°33' W 122°42'6 7.5
2015-Jun-20 03:33N 45°37' W 122°48'6289.1
2015-Jun-20 03:32N 45°33' W 122°42'196962.2
2015-Jun-20 03:32N 45°52' W 122°48'14413.0
2015-Jun-20 03:30N 46°05' W 122°56'20377.8
2015-Jun-20 03:26N 46°12' W 123°23'4348.3
2015-Jun-20 02:33N 45°37' W 122°48'6285.0
2015-Jun-20 02:32N 45°33' W 122°42'19368.1
2015-Jun-20 02:29N 45°52' W 122°48'1477.7
2015-Jun-20 02:17N 46°05' W 122°56'3439.1
2015-Jun-20 01:26N 45°33' W 122°42'6202.8
2015-Jun-20 01:24N 45°37' W 122°48'15202.2
2015-Jun-20 01:20N 45°52' W 122°48'1461.4
2015-Jun-20 01:06N 46°05' W 122°56'2952.9
2015-Jun-20 00:33N 45°37' W 122°48'292949.1
2015-Jun-20 00:32N 46°05' W 122°56'34303.6
2015-Jun-20 00:26N 45°33' W 122°42'19368.3
2015-Jun-20 00:23N 45°52' W 122°48'32841.3
2015-Jun-20 00:20N 46°12' W 123°23'4351.2
2015-Jun-19 23:30N 45°37' W 122°48'29475.6
2015-Jun-19 23:26N 46°05' W 122°56'342954.3
2015-Jun-19 23:26N 45°33' W 122°42'199946.1
2015-Jun-19 23:26N 45°52' W 122°48'1516.9
2015-Jun-19 22:33N 45°37' W 122°48'292866.6
2015-Jun-19 22:33N 46°05' W 122°56'14229.3
2015-Jun-19 22:29N 45°52' W 122°48'1516.0
2015-Jun-19 21:33N 45°37' W 122°48'292789.1
2015-Jun-19 21:32N 46°05' W 122°56'141107.7
2015-Jun-19 21:32N 45°52' W 122°48'1948.6
2015-Jun-19 21:08N 45°33' W 122°42'6 9.3
2015-Jun-19 20:30N 45°37' W 122°48'292646.1
2015-Jun-19 20:29N 46°05' W 122°56'34550.6
2015-Jun-19 20:26N 45°33' W 122°42'19190.7
2015-Jun-19 20:20N 45°52' W 122°48'32355.7
2015-Jun-19 20:14N 46°12' W 123°23'4362.5
2015-Jun-19 19:33N 45°37' W 122°48'292457.1
2015-Jun-19 19:32N 46°05' W 122°56'141239.1
2015-Jun-19 19:32N 45°52' W 122°48'1414.6
2015-Jun-19 18:32N 46°05' W 122°56'1489.0
2015-Jun-19 18:23N 45°52' W 122°48'15117.3
2015-Jun-19 18:15N 45°37' W 122°48'647.8
2015-Jun-19 18:08N 45°33' W 122°42'3457.2
2015-Jun-19 17:32N 46°05' W 122°56'2014657.1
2015-Jun-19 17:32N 46°12' W 123°23'495003.1
2015-Jun-19 17:32N 45°33' W 122°42'19376.2
2015-Jun-19 17:29N 45°52' W 122°48'1553.5
2015-Jun-19 17:12N 45°37' W 122°48'2943.4
2015-Jun-19 16:32N 46°05' W 122°56'14127.9
2015-Jun-19 16:26N 45°52' W 122°48'15567.9
2015-Jun-19 16:24N 45°37' W 122°48'681.2
2015-Jun-19 16:20N 45°33' W 122°42'6 7.5
2015-Jun-19 15:33N 45°37' W 122°48'292517.6
2015-Jun-19 15:32N 46°05' W 122°56'1490.1
2015-Jun-19 15:23N 45°52' W 122°48'1516.0
2015-Jun-19 14:27N 45°37' W 122°48'29467.0
2015-Jun-19 14:23N 46°05' W 122°56'14234.4
2015-Jun-19 14:20N 45°52' W 122°48'32353.5
2015-Jun-19 14:14N 46°12' W 123°23'4362.5
2015-Jun-19 13:33N 45°37' W 122°48'433026.1
2015-Jun-19 13:32N 46°12' W 123°23'20431.1
2015-Jun-19 13:29N 46°05' W 122°56'141210.3
2015-Jun-19 13:29N 45°52' W 122°48'3234.0
2015-Jun-19 12:32N 46°12' W 123°23'431196.4
2015-Jun-19 12:30N 45°37' W 122°48'292646.1
2015-Jun-19 12:30N 46°05' W 122°56'14230.3
2015-Jun-19 12:26N 45°52' W 122°48'1516.9
2015-Jun-19 11:33N 45°37' W 122°48'15635.6
2015-Jun-19 11:32N 45°52' W 122°48'32356.8
2015-Jun-19 11:26N 46°12' W 123°23'2058.4
2015-Jun-19 11:05N 46°05' W 122°56'2953.4
2015-Jun-19 10:33N 45°37' W 122°48'292196.2
2015-Jun-19 10:32N 46°05' W 122°56'208142.9
2015-Jun-19 10:32N 46°12' W 123°23'32201.5
2015-Jun-19 10:23N 45°52' W 122°48'1517.9
2015-Jun-19 09:33N 45°37' W 122°48'292580.5
2015-Jun-19 09:33N 46°05' W 122°56'206662.3
2015-Jun-19 09:32N 46°12' W 123°23'32201.2
2015-Jun-19 09:23N 45°52' W 122°48'1517.9
2015-Jun-19 08:33N 45°37' W 122°48'433026.1
2015-Jun-19 08:32N 46°12' W 123°23'32548.8
2015-Jun-19 08:29N 45°52' W 122°48'14374.4
2015-Jun-19 08:27N 46°05' W 122°56'1415.9
2015-Jun-19 07:32N 45°52' W 122°48'14371.9
2015-Jun-19 07:29N 46°05' W 122°56'209160.7
2015-Jun-19 07:29N 46°12' W 123°23'493648.1
2015-Jun-19 07:29N 45°33' W 122°42'6263.8
2015-Jun-19 07:27N 45°37' W 122°48'1512.6
2015-Jun-19 06:17N 45°52' W 122°48'15192.7
2015-Jun-19 06:12N 45°37' W 122°48'43656.8
2015-Jun-19 06:08N 46°12' W 123°23'20444.2
2015-Jun-19 06:06N 46°05' W 122°56'2036.8
2015-Jun-19 05:32N 46°12' W 123°23'20428.6
2015-Jun-19 05:29N 46°05' W 122°56'141335.0
2015-Jun-19 05:29N 45°52' W 122°48'15194.1
2015-Jun-19 05:24N 45°37' W 122°48'0 0.0
2015-Jun-19 04:30N 45°37' W 122°48'15651.1
2015-Jun-19 04:29N 45°52' W 122°48'14369.1
2015-Jun-19 04:27N 46°05' W 122°56'206662.3
2015-Jun-19 04:26N 46°12' W 123°23'2022.7
2015-Jun-19 03:33N 46°05' W 122°56'14238.7
2015-Jun-19 03:29N 45°52' W 122°48'1565.3
2015-Jun-19 03:15N 45°37' W 122°48'0 0.0
2015-Jun-19 02:30N 45°37' W 122°48'292293.3
2015-Jun-19 02:29N 46°05' W 122°56'342163.0
2015-Jun-19 02:29N 45°33' W 122°42'19203.5
2015-Jun-19 02:23N 45°52' W 122°48'1517.9
2015-Jun-19 01:33N 45°37' W 122°48'1585.8
2015-Jun-19 01:23N 45°52' W 122°48'32224.7
2015-Jun-19 01:14N 46°12' W 123°23'20426.1
2015-Jun-19 01:11N 46°05' W 122°56'2945.0
2015-Jun-19 00:33N 45°37' W 122°48'292196.2
2015-Jun-19 00:32N 46°05' W 122°56'141487.5
2015-Jun-19 00:32N 45°52' W 122°48'1969.2
2015-Jun-19 00:15N 45°33' W 122°42'3444.2
2015-Jun-18 23:29N 46°05' W 122°56'14243.3
2015-Jun-18 23:26N 45°52' W 122°48'15544.8
2015-Jun-18 23:24N 45°37' W 122°48'2933.2
2015-Jun-18 22:32N 46°05' W 122°56'29208.9
2015-Jun-18 22:24N 45°37' W 122°48'15203.0
2015-Jun-18 22:20N 45°52' W 122°48'1519.1
2015-Jun-18 21:33N 45°37' W 122°48'432572.5
2015-Jun-18 21:32N 46°12' W 123°23'20428.6
2015-Jun-18 21:29N 46°05' W 122°56'141487.0
2015-Jun-18 21:29N 45°52' W 122°48'1516.0
2015-Jun-18 20:33N 45°37' W 122°48'292150.0
2015-Jun-18 20:33N 46°05' W 122°56'141406.6
2015-Jun-18 20:32N 45°52' W 122°48'1414.6
2015-Jun-18 19:32N 46°05' W 122°56'2010469.4
2015-Jun-18 19:32N 46°12' W 123°23'32567.8
2015-Jun-18 19:29N 45°52' W 122°48'1415.4
2015-Jun-18 18:33N 46°05' W 122°56'206107.1
2015-Jun-18 18:32N 46°12' W 123°23'32564.9
2015-Jun-18 18:29N 45°52' W 122°48'15562.0
2015-Jun-18 18:27N 45°37' W 122°48'0 0.0
2015-Jun-18 17:33N 45°37' W 122°48'291947.1
2015-Jun-18 17:32N 46°05' W 122°56'207328.6
2015-Jun-18 17:32N 46°12' W 123°23'32155.8
2015-Jun-18 17:20N 45°52' W 122°48'1519.1
2015-Jun-18 16:33N 45°37' W 122°48'432489.2
2015-Jun-18 16:32N 46°12' W 123°23'325763.0
2015-Jun-18 16:32N 45°52' W 122°48'14102.1
2015-Jun-18 16:23N 46°05' W 122°56'2930.6
2015-Jun-18 15:27N 45°37' W 122°48'432661.2
2015-Jun-18 15:26N 46°12' W 123°23'20423.6
2015-Jun-18 15:23N 46°05' W 122°56'141627.0
2015-Jun-18 15:23N 45°52' W 122°48'1517.9
2015-Jun-18 14:33N 45°37' W 122°48'432572.2
2015-Jun-18 14:32N 46°12' W 123°23'32565.0
2015-Jun-18 14:29N 45°52' W 122°48'14102.7
2015-Jun-18 14:21N 46°05' W 122°56'2025.3
2015-Jun-18 13:32N 46°12' W 123°23'325238.4
2015-Jun-18 13:32N 45°52' W 122°48'14356.5
2015-Jun-18 13:30N 46°05' W 122°56'0 0.0
2015-Jun-18 12:29N 46°05' W 122°56'141679.5
2015-Jun-18 12:29N 45°52' W 122°48'32753.3
2015-Jun-18 12:26N 46°12' W 123°23'4348.5
2015-Jun-18 11:33N 45°37' W 122°48'15659.1
2015-Jun-18 11:32N 45°52' W 122°48'32720.4
2015-Jun-18 11:29N 46°12' W 123°23'20208.2
2015-Jun-18 11:23N 46°05' W 122°56'2023.9
2015-Jun-18 10:32N 46°12' W 123°23'431330.6
2015-Jun-18 10:30N 45°37' W 122°48'29248.7
2015-Jun-18 10:23N 46°05' W 122°56'141859.4
2015-Jun-18 10:23N 45°52' W 122°48'19605.2
2015-Jun-18 10:21N 45°33' W 122°42'3441.5
2015-Jun-18 09:33N 46°05' W 122°56'207328.6
2015-Jun-18 09:32N 46°12' W 123°23'32105.1
2015-Jun-18 09:14N 45°52' W 122°48'15192.0
2015-Jun-18 09:09N 45°37' W 122°48'0 0.0
2015-Jun-18 08:33N 45°37' W 122°48'432303.5
2015-Jun-18 08:32N 46°12' W 123°23'32585.0
2015-Jun-18 08:29N 45°52' W 122°48'14156.3
2015-Jun-18 08:23N 46°05' W 122°56'2934.4
2015-Jun-18 07:33N 45°37' W 122°48'432411.4
2015-Jun-18 07:32N 46°12' W 123°23'20137.5
2015-Jun-18 07:23N 46°05' W 122°56'142081.8
2015-Jun-18 07:23N 45°52' W 122°48'1517.9
2015-Jun-18 06:33N 45°37' W 122°48'432204.7
2015-Jun-18 06:32N 46°12' W 123°23'20436.2
2015-Jun-18 06:29N 46°05' W 122°56'14250.3
2015-Jun-18 06:26N 45°52' W 122°48'3235.8
2015-Jun-18 05:32N 46°12' W 123°23'326403.3
2015-Jun-18 05:32N 45°52' W 122°48'14335.9
2015-Jun-18 05:29N 46°05' W 122°56'29214.1
2015-Jun-18 05:21N 45°37' W 122°48'655.1
2015-Jun-18 05:15N 45°33' W 122°42'0 0.0
2015-Jun-18 04:33N 45°33' W 122°42'6134.4
2015-Jun-18 04:30N 45°37' W 122°48'15635.3
2015-Jun-18 04:29N 45°52' W 122°48'32711.5
2015-Jun-18 04:26N 46°12' W 123°23'2014657.1
2015-Jun-18 04:26N 46°05' W 122°56'2932.6
2015-Jun-18 03:33N 45°37' W 122°48'432204.7
2015-Jun-18 03:32N 46°12' W 123°23'2073285.7
2015-Jun-18 03:32N 46°05' W 122°56'14273.9
2015-Jun-18 03:29N 45°52' W 122°48'1920.7
2015-Jun-18 02:33N 45°33' W 122°42'342633.2
2015-Jun-18 02:32N 46°05' W 122°56'144733.1
2015-Jun-18 02:32N 45°52' W 122°48'1583.8
2015-Jun-18 02:21N 45°37' W 122°48'43362.3
2015-Jun-18 02:14N 46°12' W 123°23'4362.9
2015-Jun-18 01:33N 45°37' W 122°48'0 0.0
2015-Jun-18 00:34N 45°37' W 122°48'291376.3
2015-Jun-18 00:32N 46°05' W 122°56'1447.7
2015-Jun-18 00:14N 45°52' W 122°48'1520.4
2015-Jun-17 23:31N 45°37' W 122°48'15643.2
2015-Jun-17 23:29N 45°52' W 122°48'19575.2
2015-Jun-17 23:27N 45°33' W 122°42'34107.1
2015-Jun-17 23:08N 46°05' W 122°56'2949.4
2015-Jun-17 22:33N 45°37' W 122°48'291517.6
2015-Jun-17 22:32N 46°05' W 122°56'144733.1
2015-Jun-17 22:32N 45°52' W 122°48'1515.2
2015-Jun-17 21:33N 45°37' W 122°48'432269.6
2015-Jun-17 21:32N 46°12' W 123°23'32600.2
2015-Jun-17 21:29N 45°52' W 122°48'1472.9
2015-Jun-17 21:17N 46°05' W 122°56'2939.3
2015-Jun-17 20:33N 45°37' W 122°48'432303.5
2015-Jun-17 20:32N 46°12' W 123°23'20134.2
2015-Jun-17 20:23N 46°05' W 122°56'146505.5
2015-Jun-17 20:23N 45°52' W 122°48'1923.2
2015-Jun-17 19:33N 45°33' W 122°42'342816.9
2015-Jun-17 19:32N 46°05' W 122°56'29159.3
2015-Jun-17 19:22N 45°37' W 122°48'432173.7
2015-Jun-17 19:20N 46°12' W 123°23'32594.1
2015-Jun-17 19:17N 45°52' W 122°48'1520.4
2015-Jun-17 18:34N 45°37' W 122°48'432057.8
2015-Jun-17 18:32N 46°12' W 123°23'2036642.8
2015-Jun-17 18:32N 46°05' W 122°56'14279.8
2015-Jun-17 18:29N 45°52' W 122°48'1415.2
2015-Jun-17 17:32N 46°05' W 122°56'145782.7
2015-Jun-17 17:32N 45°52' W 122°48'32333.1
2015-Jun-17 17:26N 46°12' W 123°23'43534.0
2015-Jun-17 17:22N 45°37' W 122°48'4352.3
2015-Jun-17 16:32N 46°12' W 123°23'2010469.4
2015-Jun-17 16:32N 46°05' W 122°56'14279.9
2015-Jun-17 16:29N 45°52' W 122°48'15561.7
2015-Jun-17 16:28N 45°37' W 122°48'4346.6
2015-Jun-17 15:32N 46°12' W 123°23'3210478.2
2015-Jun-17 15:32N 45°52' W 122°48'14299.2
2015-Jun-17 15:29N 46°05' W 122°56'29370.0
2015-Jun-17 15:25N 45°37' W 122°48'2932.9
2015-Jun-17 14:32N 46°05' W 122°56'1417354.7
2015-Jun-17 14:32N 45°52' W 122°48'15193.4
2015-Jun-17 14:28N 45°37' W 122°48'43352.4
2015-Jun-17 14:20N 46°12' W 123°23'0 0.0
2015-Jun-17 13:32N 46°12' W 123°23'431429.0
2015-Jun-17 13:31N 45°37' W 122°48'29398.4
2015-Jun-17 13:26N 46°05' W 122°56'14144.6
2015-Jun-17 13:20N 45°52' W 122°48'3240.1
2015-Jun-17 12:32N 46°12' W 123°23'3211526.0
2015-Jun-17 12:32N 45°52' W 122°48'15194.8
2015-Jun-17 12:28N 45°37' W 122°48'291290.0
2015-Jun-17 12:26N 46°05' W 122°56'2930.9
2015-Jun-17 11:31N 45°37' W 122°48'43605.3
2015-Jun-17 11:26N 46°12' W 123°23'2012214.3
2015-Jun-17 11:26N 46°05' W 122°56'1413016.0
2015-Jun-17 11:26N 45°52' W 122°48'0 0.0
2015-Jun-17 10:26N 45°52' W 122°48'15562.0
2015-Jun-17 10:25N 45°37' W 122°48'291243.6
2015-Jun-17 10:23N 46°05' W 122°56'2082.0
2015-Jun-17 10:08N 46°12' W 123°23'2033.9
2015-Jun-17 09:32N 46°05' W 122°56'1496.1
2015-Jun-17 09:23N 45°52' W 122°48'15562.0
2015-Jun-17 09:22N 45°37' W 122°48'43353.2
2015-Jun-17 09:14N 46°12' W 123°23'4358.8
2015-Jun-17 08:31N 45°37' W 122°48'29166.4
2015-Jun-17 08:20N 46°05' W 122°56'1417348.1
2015-Jun-17 08:20N 45°52' W 122°48'1517.9
2015-Jun-17 07:31N 45°37' W 122°48'43600.5
2015-Jun-17 07:26N 46°12' W 123°23'2014657.1
2015-Jun-17 07:26N 46°05' W 122°56'2929.3
2015-Jun-17 06:28N 45°37' W 122°48'43351.6
2015-Jun-17 06:20N 46°12' W 123°23'32629.8
2015-Jun-17 06:17N 45°52' W 122°48'3242.8
2015-Jun-17 05:32N 46°12' W 123°23'3223051.9
2015-Jun-17 05:32N 45°52' W 122°48'15556.1
2015-Jun-17 05:31N 45°37' W 122°48'29268.1
2015-Jun-17 05:24N 46°05' W 122°56'  

Dump ship's entire track history